<?xml version="1.0" encoding="UTF-8" standalone="no" ?>
<gpx xmlns="http://www.topografix.com/GPX/1/1" xmlns:xsi="http://www.w3.org/2001/XMLSchema-instance" xsi:schemaLocation="http://www.topografix.com/GPX/1/1 http://www.topografix.com/GPX/1/1/gpx.xsd" version="1.1" creator="VisuGPX - https://www.visugpx.com">
  <metadata>
    <name>2016-09-04 Cascades d'Alloix</name>
    <desc><![CDATA[A éviter en cette fin août car les cascades sont sèches]]></desc>
  </metadata>
  <trk>
    <name><![CDATA[2016-09-04 cascades d'Alloix]]></name>
    <trkseg>
      <trkpt lat="45.38832" lon="5.95441">
        <ele>395</ele>
        <time>2016-09-04T12:20:19Z</time>
      </trkpt>
      <trkpt lat="45.38832" lon="5.95441">
        <ele>395</ele>
        <time>2016-09-04T12:20:24Z</time>
      </trkpt>
      <trkpt lat="45.38832" lon="5.95441">
        <ele>395</ele>
        <time>2016-09-04T12:20:29Z</time>
      </trkpt>
      <trkpt lat="45.3883" lon="5.95444">
        <ele>395</ele>
        <time>2016-09-04T12:20:34Z</time>
      </trkpt>
      <trkpt lat="45.3883" lon="5.95444">
        <ele>395</ele>
        <time>2016-09-04T12:20:44Z</time>
      </trkpt>
      <trkpt lat="45.38829" lon="5.95446">
        <ele>395</ele>
        <time>2016-09-04T12:20:49Z</time>
      </trkpt>
      <trkpt lat="45.38818" lon="5.95446">
        <ele>394.109348107</ele>
        <time>2016-09-04T12:20:59Z</time>
      </trkpt>
      <trkpt lat="45.38813" lon="5.95442">
        <ele>394.109348107</ele>
        <time>2016-09-04T12:21:04Z</time>
      </trkpt>
      <trkpt lat="45.38801" lon="5.95433">
        <ele>397.56395157</ele>
        <time>2016-09-04T12:21:14Z</time>
      </trkpt>
      <trkpt lat="45.38797" lon="5.95429">
        <ele>397.56395157</ele>
        <time>2016-09-04T12:21:19Z</time>
      </trkpt>
      <trkpt lat="45.38793" lon="5.95426">
        <ele>399.392834172</ele>
        <time>2016-09-04T12:21:24Z</time>
      </trkpt>
      <trkpt lat="45.3879" lon="5.95421">
        <ele>399.392834172</ele>
        <time>2016-09-04T12:21:29Z</time>
      </trkpt>
      <trkpt lat="45.38782" lon="5.95409">
        <ele>400.746744234</ele>
        <time>2016-09-04T12:21:39Z</time>
      </trkpt>
      <trkpt lat="45.38779" lon="5.95404">
        <ele>400.746744234</ele>
        <time>2016-09-04T12:21:44Z</time>
      </trkpt>
      <trkpt lat="45.3877" lon="5.95388">
        <ele>401.360027645</ele>
        <time>2016-09-04T12:21:59Z</time>
      </trkpt>
      <trkpt lat="45.38768" lon="5.95383">
        <ele>401.360027645</ele>
        <time>2016-09-04T12:22:04Z</time>
      </trkpt>
      <trkpt lat="45.38763" lon="5.95377">
        <ele>402.160097383</ele>
        <time>2016-09-04T12:22:09Z</time>
      </trkpt>
      <trkpt lat="45.38758" lon="5.95378">
        <ele>402.160097383</ele>
        <time>2016-09-04T12:22:14Z</time>
      </trkpt>
      <trkpt lat="45.38753" lon="5.95379">
        <ele>402.577688803</ele>
        <time>2016-09-04T12:22:19Z</time>
      </trkpt>
      <trkpt lat="45.38743" lon="5.95377">
        <ele>403.420017436</ele>
        <time>2016-09-04T12:22:29Z</time>
      </trkpt>
      <trkpt lat="45.38742" lon="5.95381">
        <ele>403.420017436</ele>
        <time>2016-09-04T12:22:34Z</time>
      </trkpt>
      <trkpt lat="45.38741" lon="5.95382">
        <ele>403.420017436</ele>
        <time>2016-09-04T12:22:44Z</time>
      </trkpt>
      <trkpt lat="45.38738" lon="5.95388">
        <ele>403.526765105</ele>
        <time>2016-09-04T12:22:49Z</time>
      </trkpt>
      <trkpt lat="45.38733" lon="5.95392">
        <ele>403.526765105</ele>
        <time>2016-09-04T12:22:59Z</time>
      </trkpt>
      <trkpt lat="45.3873" lon="5.95393">
        <ele>403.435042579</ele>
        <time>2016-09-04T12:23:04Z</time>
      </trkpt>
      <trkpt lat="45.38721" lon="5.954">
        <ele>402.480494022</ele>
        <time>2016-09-04T12:23:14Z</time>
      </trkpt>
      <trkpt lat="45.38716" lon="5.95405">
        <ele>402.480494022</ele>
        <time>2016-09-04T12:23:19Z</time>
      </trkpt>
      <trkpt lat="45.38706" lon="5.95413">
        <ele>401.745383316</ele>
        <time>2016-09-04T12:23:29Z</time>
      </trkpt>
      <trkpt lat="45.38701" lon="5.95417">
        <ele>401.745383316</ele>
        <time>2016-09-04T12:23:34Z</time>
      </trkpt>
      <trkpt lat="45.38692" lon="5.95427">
        <ele>400.401622736</ele>
        <time>2016-09-04T12:23:49Z</time>
      </trkpt>
      <trkpt lat="45.38693" lon="5.95427">
        <ele>400.401622736</ele>
        <time>2016-09-04T12:23:54Z</time>
      </trkpt>
      <trkpt lat="45.38694" lon="5.95427">
        <ele>400.401622736</ele>
        <time>2016-09-04T12:24:04Z</time>
      </trkpt>
      <trkpt lat="45.38694" lon="5.95427">
        <ele>400.401622736</ele>
        <time>2016-09-04T12:24:09Z</time>
      </trkpt>
      <trkpt lat="45.38685" lon="5.95424">
        <ele>399.368259592</ele>
        <time>2016-09-04T12:24:19Z</time>
      </trkpt>
      <trkpt lat="45.3868" lon="5.9542">
        <ele>399.368259592</ele>
        <time>2016-09-04T12:24:24Z</time>
      </trkpt>
      <trkpt lat="45.38669" lon="5.95415">
        <ele>397.984787064</ele>
        <time>2016-09-04T12:24:34Z</time>
      </trkpt>
      <trkpt lat="45.3867" lon="5.95413">
        <ele>397.984787064</ele>
        <time>2016-09-04T12:24:39Z</time>
      </trkpt>
      <trkpt lat="45.38673" lon="5.95402">
        <ele>395.821012099</ele>
        <time>2016-09-04T12:24:49Z</time>
      </trkpt>
      <trkpt lat="45.38678" lon="5.95397">
        <ele>395.821012099</ele>
        <time>2016-09-04T12:24:54Z</time>
      </trkpt>
      <trkpt lat="45.38681" lon="5.95383">
        <ele>393.805995343</ele>
        <time>2016-09-04T12:25:04Z</time>
      </trkpt>
      <trkpt lat="45.38678" lon="5.95377">
        <ele>393.805995343</ele>
        <time>2016-09-04T12:25:09Z</time>
      </trkpt>
      <trkpt lat="45.38668" lon="5.95362">
        <ele>391.142920072</ele>
        <time>2016-09-04T12:25:19Z</time>
      </trkpt>
      <trkpt lat="45.38661" lon="5.9536">
        <ele>391.142920072</ele>
        <time>2016-09-04T12:25:24Z</time>
      </trkpt>
      <trkpt lat="45.38658" lon="5.95358">
        <ele>389.042806515</ele>
        <time>2016-09-04T12:25:34Z</time>
      </trkpt>
      <trkpt lat="45.38656" lon="5.95357">
        <ele>389.042806515</ele>
        <time>2016-09-04T12:25:39Z</time>
      </trkpt>
      <trkpt lat="45.38644" lon="5.95367">
        <ele>387.14398311</ele>
        <time>2016-09-04T12:25:54Z</time>
      </trkpt>
      <trkpt lat="45.3864" lon="5.95376">
        <ele>387.14398311</ele>
        <time>2016-09-04T12:25:59Z</time>
      </trkpt>
      <trkpt lat="45.38636" lon="5.95382">
        <ele>385.434302387</ele>
        <time>2016-09-04T12:26:04Z</time>
      </trkpt>
      <trkpt lat="45.3863" lon="5.95393">
        <ele>383.747178619</ele>
        <time>2016-09-04T12:26:14Z</time>
      </trkpt>
      <trkpt lat="45.38626" lon="5.95398">
        <ele>383.747178619</ele>
        <time>2016-09-04T12:26:19Z</time>
      </trkpt>
      <trkpt lat="45.38616" lon="5.95414">
        <ele>381.785329594</ele>
        <time>2016-09-04T12:26:34Z</time>
      </trkpt>
      <trkpt lat="45.38614" lon="5.9542">
        <ele>381.785329594</ele>
        <time>2016-09-04T12:26:39Z</time>
      </trkpt>
      <trkpt lat="45.38602" lon="5.95432">
        <ele>380.026328684</ele>
        <time>2016-09-04T12:26:51Z</time>
      </trkpt>
      <trkpt lat="45.386" lon="5.95436">
        <ele>380.026328684</ele>
        <time>2016-09-04T12:26:54Z</time>
      </trkpt>
      <trkpt lat="45.38592" lon="5.95448">
        <ele>378.304441784</ele>
        <time>2016-09-04T12:27:05Z</time>
      </trkpt>
      <trkpt lat="45.3859" lon="5.95455">
        <ele>378.304441784</ele>
        <time>2016-09-04T12:27:10Z</time>
      </trkpt>
      <trkpt lat="45.38587" lon="5.95469">
        <ele>376.040915702</ele>
        <time>2016-09-04T12:27:20Z</time>
      </trkpt>
      <trkpt lat="45.38584" lon="5.95475">
        <ele>376.040915702</ele>
        <time>2016-09-04T12:27:24Z</time>
      </trkpt>
      <trkpt lat="45.38578" lon="5.95477">
        <ele>373.718368459</ele>
        <time>2016-09-04T12:27:29Z</time>
      </trkpt>
      <trkpt lat="45.38579" lon="5.95498">
        <ele>371.342447994</ele>
        <time>2016-09-04T12:27:40Z</time>
      </trkpt>
      <trkpt lat="45.38575" lon="5.9551">
        <ele>371.342447994</ele>
        <time>2016-09-04T12:27:50Z</time>
      </trkpt>
      <trkpt lat="45.38573" lon="5.95514">
        <ele>369.618543547</ele>
        <time>2016-09-04T12:27:54Z</time>
      </trkpt>
      <trkpt lat="45.38573" lon="5.95514">
        <ele>369.618543547</ele>
        <time>2016-09-04T12:27:59Z</time>
      </trkpt>
      <trkpt lat="45.38572" lon="5.95515">
        <ele>369.618543547</ele>
        <time>2016-09-04T12:28:04Z</time>
      </trkpt>
      <trkpt lat="45.38568" lon="5.95514">
        <ele>369.618543547</ele>
        <time>2016-09-04T12:28:09Z</time>
      </trkpt>
      <trkpt lat="45.38564" lon="5.95508">
        <ele>367.931945964</ele>
        <time>2016-09-04T12:28:15Z</time>
      </trkpt>
      <trkpt lat="45.38561" lon="5.95498">
        <ele>367.931945964</ele>
        <time>2016-09-04T12:28:24Z</time>
      </trkpt>
      <trkpt lat="45.38561" lon="5.95494">
        <ele>366.557531686</ele>
        <time>2016-09-04T12:28:29Z</time>
      </trkpt>
      <trkpt lat="45.38559" lon="5.95475">
        <ele>365.193899416</ele>
        <time>2016-09-04T12:28:39Z</time>
      </trkpt>
      <trkpt lat="45.38556" lon="5.9546">
        <ele>364.673632514</ele>
        <time>2016-09-04T12:28:44Z</time>
      </trkpt>
      <trkpt lat="45.38558" lon="5.95447">
        <ele>363.687515363</ele>
        <time>2016-09-04T12:28:54Z</time>
      </trkpt>
      <trkpt lat="45.38563" lon="5.95443">
        <ele>363.687515363</ele>
        <time>2016-09-04T12:28:59Z</time>
      </trkpt>
      <trkpt lat="45.38564" lon="5.95441">
        <ele>363.687515363</ele>
        <time>2016-09-04T12:29:09Z</time>
      </trkpt>
      <trkpt lat="45.38568" lon="5.95433">
        <ele>362.824675082</ele>
        <time>2016-09-04T12:29:16Z</time>
      </trkpt>
      <trkpt lat="45.38569" lon="5.95433">
        <ele>362.824675082</ele>
        <time>2016-09-04T12:29:19Z</time>
      </trkpt>
      <trkpt lat="45.38576" lon="5.95419">
        <ele>362.078032424</ele>
        <time>2016-09-04T12:29:29Z</time>
      </trkpt>
      <trkpt lat="45.38582" lon="5.95415">
        <ele>362.078032424</ele>
        <time>2016-09-04T12:29:35Z</time>
      </trkpt>
      <trkpt lat="45.3859" lon="5.95403">
        <ele>361.159167788</ele>
        <time>2016-09-04T12:29:45Z</time>
      </trkpt>
      <trkpt lat="45.38595" lon="5.95402">
        <ele>361.159167788</ele>
        <time>2016-09-04T12:29:50Z</time>
      </trkpt>
      <trkpt lat="45.38603" lon="5.95389">
        <ele>360.645904894</ele>
        <time>2016-09-04T12:29:59Z</time>
      </trkpt>
      <trkpt lat="45.38607" lon="5.95384">
        <ele>360.645904894</ele>
        <time>2016-09-04T12:30:04Z</time>
      </trkpt>
      <trkpt lat="45.38615" lon="5.9537">
        <ele>360.086555196</ele>
        <time>2016-09-04T12:30:15Z</time>
      </trkpt>
      <trkpt lat="45.38618" lon="5.95365">
        <ele>360.086555196</ele>
        <time>2016-09-04T12:30:19Z</time>
      </trkpt>
      <trkpt lat="45.38622" lon="5.95361">
        <ele>359.483195832</ele>
        <time>2016-09-04T12:30:24Z</time>
      </trkpt>
      <trkpt lat="45.38626" lon="5.95352">
        <ele>359.483195832</ele>
        <time>2016-09-04T12:30:29Z</time>
      </trkpt>
      <trkpt lat="45.38633" lon="5.95337">
        <ele>358.98254298</ele>
        <time>2016-09-04T12:30:40Z</time>
      </trkpt>
      <trkpt lat="45.38637" lon="5.9533">
        <ele>358.98254298</ele>
        <time>2016-09-04T12:30:45Z</time>
      </trkpt>
      <trkpt lat="45.38636" lon="5.95319">
        <ele>358.432061351</ele>
        <time>2016-09-04T12:30:54Z</time>
      </trkpt>
      <trkpt lat="45.38633" lon="5.95304">
        <ele>358.566948564</ele>
        <time>2016-09-04T12:31:00Z</time>
      </trkpt>
      <trkpt lat="45.3862" lon="5.95296">
        <ele>358.457512649</ele>
        <time>2016-09-04T12:31:10Z</time>
      </trkpt>
      <trkpt lat="45.38613" lon="5.9529">
        <ele>358.457512649</ele>
        <time>2016-09-04T12:31:14Z</time>
      </trkpt>
      <trkpt lat="45.3862" lon="5.95279">
        <ele>357.67088466</ele>
        <time>2016-09-04T12:31:24Z</time>
      </trkpt>
      <trkpt lat="45.3862" lon="5.95274">
        <ele>357.67088466</ele>
        <time>2016-09-04T12:31:29Z</time>
      </trkpt>
      <trkpt lat="45.38628" lon="5.95264">
        <ele>356.845923643</ele>
        <time>2016-09-04T12:31:44Z</time>
      </trkpt>
      <trkpt lat="45.38636" lon="5.95253">
        <ele>356.733485082</ele>
        <time>2016-09-04T12:31:59Z</time>
      </trkpt>
      <trkpt lat="45.38639" lon="5.95247">
        <ele>356.733485082</ele>
        <time>2016-09-04T12:32:04Z</time>
      </trkpt>
      <trkpt lat="45.38638" lon="5.95235">
        <ele>356.982862406</ele>
        <time>2016-09-04T12:32:15Z</time>
      </trkpt>
      <trkpt lat="45.38645" lon="5.95229">
        <ele>356.982862406</ele>
        <time>2016-09-04T12:32:19Z</time>
      </trkpt>
      <trkpt lat="45.38652" lon="5.95213">
        <ele>358.016003206</ele>
        <time>2016-09-04T12:32:30Z</time>
      </trkpt>
      <trkpt lat="45.38654" lon="5.95207">
        <ele>358.016003206</ele>
        <time>2016-09-04T12:32:34Z</time>
      </trkpt>
      <trkpt lat="45.38653" lon="5.95204">
        <ele>358.016003206</ele>
        <time>2016-09-04T12:32:45Z</time>
      </trkpt>
      <trkpt lat="45.38653" lon="5.95204">
        <ele>358.016003206</ele>
        <time>2016-09-04T12:32:50Z</time>
      </trkpt>
      <trkpt lat="45.38652" lon="5.95203">
        <ele>358.016003206</ele>
        <time>2016-09-04T12:32:59Z</time>
      </trkpt>
      <trkpt lat="45.38652" lon="5.95203">
        <ele>358.016003206</ele>
        <time>2016-09-04T12:33:05Z</time>
      </trkpt>
      <trkpt lat="45.38652" lon="5.95203">
        <ele>358.016003206</ele>
        <time>2016-09-04T12:33:14Z</time>
      </trkpt>
      <trkpt lat="45.38652" lon="5.95202">
        <ele>358.016003206</ele>
        <time>2016-09-04T12:33:19Z</time>
      </trkpt>
      <trkpt lat="45.38652" lon="5.95202">
        <ele>358.016003206</ele>
        <time>2016-09-04T12:33:30Z</time>
      </trkpt>
      <trkpt lat="45.38652" lon="5.95202">
        <ele>358.016003206</ele>
        <time>2016-09-04T12:33:34Z</time>
      </trkpt>
      <trkpt lat="45.38647" lon="5.95165">
        <ele>360.22171442</ele>
        <time>2016-09-04T12:33:45Z</time>
      </trkpt>
      <trkpt lat="45.38647" lon="5.95164">
        <ele>360.22171442</ele>
        <time>2016-09-04T12:33:50Z</time>
      </trkpt>
      <trkpt lat="45.38634" lon="5.95146">
        <ele>362.144201642</ele>
        <time>2016-09-04T12:33:59Z</time>
      </trkpt>
      <trkpt lat="45.3863" lon="5.95147">
        <ele>362.144201642</ele>
        <time>2016-09-04T12:34:04Z</time>
      </trkpt>
      <trkpt lat="45.38627" lon="5.95139">
        <ele>363.492112995</ele>
        <time>2016-09-04T12:34:20Z</time>
      </trkpt>
      <trkpt lat="45.38617" lon="5.95126">
        <ele>365.66029143</ele>
        <time>2016-09-04T12:34:34Z</time>
      </trkpt>
      <trkpt lat="45.38617" lon="5.95125">
        <ele>365.66029143</ele>
        <time>2016-09-04T12:34:39Z</time>
      </trkpt>
      <trkpt lat="45.38617" lon="5.95123">
        <ele>365.66029143</ele>
        <time>2016-09-04T12:34:49Z</time>
      </trkpt>
      <trkpt lat="45.38617" lon="5.95122">
        <ele>365.66029143</ele>
        <time>2016-09-04T12:34:55Z</time>
      </trkpt>
      <trkpt lat="45.3862" lon="5.95112">
        <ele>367.367944326</ele>
        <time>2016-09-04T12:35:04Z</time>
      </trkpt>
      <trkpt lat="45.3862" lon="5.95101">
        <ele>367.367944326</ele>
        <time>2016-09-04T12:35:09Z</time>
      </trkpt>
      <trkpt lat="45.38626" lon="5.95083">
        <ele>368.79408824</ele>
        <time>2016-09-04T12:35:19Z</time>
      </trkpt>
      <trkpt lat="45.38626" lon="5.95079">
        <ele>368.79408824</ele>
        <time>2016-09-04T12:35:26Z</time>
      </trkpt>
      <trkpt lat="45.38624" lon="5.95064">
        <ele>370.105261561</ele>
        <time>2016-09-04T12:35:35Z</time>
      </trkpt>
      <trkpt lat="45.38623" lon="5.95056">
        <ele>370.105261561</ele>
        <time>2016-09-04T12:35:39Z</time>
      </trkpt>
      <trkpt lat="45.38621" lon="5.95055">
        <ele>370.105261561</ele>
        <time>2016-09-04T12:35:44Z</time>
      </trkpt>
      <trkpt lat="45.38638" lon="5.95032">
        <ele>372.206736608</ele>
        <time>2016-09-04T12:35:54Z</time>
      </trkpt>
      <trkpt lat="45.38646" lon="5.95026">
        <ele>374.276795006</ele>
        <time>2016-09-04T12:36:00Z</time>
      </trkpt>
      <trkpt lat="45.38649" lon="5.95019">
        <ele>374.276795006</ele>
        <time>2016-09-04T12:36:10Z</time>
      </trkpt>
      <trkpt lat="45.38646" lon="5.95017">
        <ele>374.276795006</ele>
        <time>2016-09-04T12:36:14Z</time>
      </trkpt>
      <trkpt lat="45.3864" lon="5.9502">
        <ele>376.460294375</ele>
        <time>2016-09-04T12:36:25Z</time>
      </trkpt>
      <trkpt lat="45.3864" lon="5.95021">
        <ele>376.460294375</ele>
        <time>2016-09-04T12:36:29Z</time>
      </trkpt>
      <trkpt lat="45.3864" lon="5.95021">
        <ele>376.460294375</ele>
        <time>2016-09-04T12:36:40Z</time>
      </trkpt>
      <trkpt lat="45.3864" lon="5.95021">
        <ele>376.460294375</ele>
        <time>2016-09-04T12:36:45Z</time>
      </trkpt>
      <trkpt lat="45.3864" lon="5.95021">
        <ele>376.460294375</ele>
        <time>2016-09-04T12:36:55Z</time>
      </trkpt>
      <trkpt lat="45.3864" lon="5.95021">
        <ele>376.460294375</ele>
        <time>2016-09-04T12:37:00Z</time>
      </trkpt>
      <trkpt lat="45.38643" lon="5.9501">
        <ele>379.039258573</ele>
        <time>2016-09-04T12:37:10Z</time>
      </trkpt>
      <trkpt lat="45.38644" lon="5.95005">
        <ele>379.039258573</ele>
        <time>2016-09-04T12:37:14Z</time>
      </trkpt>
      <trkpt lat="45.38645" lon="5.95003">
        <ele>379.039258573</ele>
        <time>2016-09-04T12:37:24Z</time>
      </trkpt>
      <trkpt lat="45.38644" lon="5.95003">
        <ele>379.039258573</ele>
        <time>2016-09-04T12:37:29Z</time>
      </trkpt>
      <trkpt lat="45.3865" lon="5.94992">
        <ele>382.271067541</ele>
        <time>2016-09-04T12:37:40Z</time>
      </trkpt>
      <trkpt lat="45.38656" lon="5.9499">
        <ele>382.271067541</ele>
        <time>2016-09-04T12:37:44Z</time>
      </trkpt>
      <trkpt lat="45.3866" lon="5.94984">
        <ele>384.606950957</ele>
        <time>2016-09-04T12:37:59Z</time>
      </trkpt>
      <trkpt lat="45.38662" lon="5.94977">
        <ele>384.606950957</ele>
        <time>2016-09-04T12:38:05Z</time>
      </trkpt>
      <trkpt lat="45.38673" lon="5.94961">
        <ele>386.854455957</ele>
        <time>2016-09-04T12:38:14Z</time>
      </trkpt>
      <trkpt lat="45.38676" lon="5.94953">
        <ele>386.854455957</ele>
        <time>2016-09-04T12:38:20Z</time>
      </trkpt>
      <trkpt lat="45.3868" lon="5.94941">
        <ele>389.753712697</ele>
        <time>2016-09-04T12:38:30Z</time>
      </trkpt>
      <trkpt lat="45.38681" lon="5.94935">
        <ele>389.753712697</ele>
        <time>2016-09-04T12:38:34Z</time>
      </trkpt>
      <trkpt lat="45.38679" lon="5.94924">
        <ele>391.326904946</ele>
        <time>2016-09-04T12:38:45Z</time>
      </trkpt>
      <trkpt lat="45.38677" lon="5.9492">
        <ele>391.326904946</ele>
        <time>2016-09-04T12:38:49Z</time>
      </trkpt>
      <trkpt lat="45.38677" lon="5.94917">
        <ele>391.326904946</ele>
        <time>2016-09-04T12:39:00Z</time>
      </trkpt>
      <trkpt lat="45.38673" lon="5.94906">
        <ele>392.707360736</ele>
        <time>2016-09-04T12:39:04Z</time>
      </trkpt>
      <trkpt lat="45.38675" lon="5.94901">
        <ele>392.707360736</ele>
        <time>2016-09-04T12:39:15Z</time>
      </trkpt>
      <trkpt lat="45.38672" lon="5.94896">
        <ele>392.707360736</ele>
        <time>2016-09-04T12:39:19Z</time>
      </trkpt>
      <trkpt lat="45.38672" lon="5.94894">
        <ele>394.347649013</ele>
        <time>2016-09-04T12:39:24Z</time>
      </trkpt>
      <trkpt lat="45.38672" lon="5.94894">
        <ele>394.347649013</ele>
        <time>2016-09-04T12:39:29Z</time>
      </trkpt>
      <trkpt lat="45.38673" lon="5.94893">
        <ele>394.347649013</ele>
        <time>2016-09-04T12:39:39Z</time>
      </trkpt>
      <trkpt lat="45.38673" lon="5.94893">
        <ele>394.347649013</ele>
        <time>2016-09-04T12:39:45Z</time>
      </trkpt>
      <trkpt lat="45.38674" lon="5.94893">
        <ele>394.347649013</ele>
        <time>2016-09-04T12:39:54Z</time>
      </trkpt>
      <trkpt lat="45.38674" lon="5.94893">
        <ele>394.347649013</ele>
        <time>2016-09-04T12:39:59Z</time>
      </trkpt>
      <trkpt lat="45.38674" lon="5.94893">
        <ele>394.347649013</ele>
        <time>2016-09-04T12:40:09Z</time>
      </trkpt>
      <trkpt lat="45.38674" lon="5.94893">
        <ele>394.347649013</ele>
        <time>2016-09-04T12:40:14Z</time>
      </trkpt>
      <trkpt lat="45.38674" lon="5.94899">
        <ele>394.347649013</ele>
        <time>2016-09-04T12:40:24Z</time>
      </trkpt>
      <trkpt lat="45.38672" lon="5.94908">
        <ele>396.808962038</ele>
        <time>2016-09-04T12:40:30Z</time>
      </trkpt>
      <trkpt lat="45.38677" lon="5.94906">
        <ele>396.808962038</ele>
        <time>2016-09-04T12:40:40Z</time>
      </trkpt>
      <trkpt lat="45.38678" lon="5.94907">
        <ele>396.808962038</ele>
        <time>2016-09-04T12:40:44Z</time>
      </trkpt>
      <trkpt lat="45.38678" lon="5.94907">
        <ele>396.808962038</ele>
        <time>2016-09-04T12:41:00Z</time>
      </trkpt>
      <trkpt lat="45.38678" lon="5.94907">
        <ele>396.808962038</ele>
        <time>2016-09-04T12:41:04Z</time>
      </trkpt>
      <trkpt lat="45.38682" lon="5.94891">
        <ele>398.412110286</ele>
        <time>2016-09-04T12:41:14Z</time>
      </trkpt>
      <trkpt lat="45.38682" lon="5.94885">
        <ele>398.412110286</ele>
        <time>2016-09-04T12:41:19Z</time>
      </trkpt>
      <trkpt lat="45.38685" lon="5.94884">
        <ele>398.412110286</ele>
        <time>2016-09-04T12:41:29Z</time>
      </trkpt>
      <trkpt lat="45.38684" lon="5.94883">
        <ele>398.412110286</ele>
        <time>2016-09-04T12:41:34Z</time>
      </trkpt>
      <trkpt lat="45.38683" lon="5.94865">
        <ele>400.534875387</ele>
        <time>2016-09-04T12:41:44Z</time>
      </trkpt>
      <trkpt lat="45.38682" lon="5.94864">
        <ele>400.534875387</ele>
        <time>2016-09-04T12:41:49Z</time>
      </trkpt>
      <trkpt lat="45.38682" lon="5.94862">
        <ele>400.534875387</ele>
        <time>2016-09-04T12:41:59Z</time>
      </trkpt>
      <trkpt lat="45.38682" lon="5.94862">
        <ele>400.534875387</ele>
        <time>2016-09-04T12:42:04Z</time>
      </trkpt>
      <trkpt lat="45.38677" lon="5.94848">
        <ele>402.549130575</ele>
        <time>2016-09-04T12:42:19Z</time>
      </trkpt>
      <trkpt lat="45.38678" lon="5.9483">
        <ele>403.295855492</ele>
        <time>2016-09-04T12:42:24Z</time>
      </trkpt>
      <trkpt lat="45.38685" lon="5.94812">
        <ele>404.470304288</ele>
        <time>2016-09-04T12:42:34Z</time>
      </trkpt>
      <trkpt lat="45.3869" lon="5.94807">
        <ele>404.470304288</ele>
        <time>2016-09-04T12:42:39Z</time>
      </trkpt>
      <trkpt lat="45.38692" lon="5.94801">
        <ele>406.327731632</ele>
        <time>2016-09-04T12:42:49Z</time>
      </trkpt>
      <trkpt lat="45.38697" lon="5.94798">
        <ele>406.327731632</ele>
        <time>2016-09-04T12:42:54Z</time>
      </trkpt>
      <trkpt lat="45.38714" lon="5.94805">
        <ele>407.073848475</ele>
        <time>2016-09-04T12:43:04Z</time>
      </trkpt>
      <trkpt lat="45.38719" lon="5.94809">
        <ele>407.073848475</ele>
        <time>2016-09-04T12:43:09Z</time>
      </trkpt>
      <trkpt lat="45.38718" lon="5.94798">
        <ele>404.332818013</ele>
        <time>2016-09-04T12:43:19Z</time>
      </trkpt>
      <trkpt lat="45.38723" lon="5.94796">
        <ele>404.332818013</ele>
        <time>2016-09-04T12:43:24Z</time>
      </trkpt>
      <trkpt lat="45.38706" lon="5.94784">
        <ele>406.187679398</ele>
        <time>2016-09-04T12:43:34Z</time>
      </trkpt>
      <trkpt lat="45.38703" lon="5.94772">
        <ele>407.663479613</ele>
        <time>2016-09-04T12:43:39Z</time>
      </trkpt>
      <trkpt lat="45.38705" lon="5.94774">
        <ele>407.663479613</ele>
        <time>2016-09-04T12:43:49Z</time>
      </trkpt>
      <trkpt lat="45.38709" lon="5.94779">
        <ele>407.663479613</ele>
        <time>2016-09-04T12:43:54Z</time>
      </trkpt>
      <trkpt lat="45.38714" lon="5.94773">
        <ele>409.653612767</ele>
        <time>2016-09-04T12:44:09Z</time>
      </trkpt>
      <trkpt lat="45.38713" lon="5.94772">
        <ele>409.653612767</ele>
        <time>2016-09-04T12:44:14Z</time>
      </trkpt>
      <trkpt lat="45.38713" lon="5.94768">
        <ele>409.653612767</ele>
        <time>2016-09-04T12:44:24Z</time>
      </trkpt>
      <trkpt lat="45.38713" lon="5.94768">
        <ele>409.653612767</ele>
        <time>2016-09-04T12:44:29Z</time>
      </trkpt>
      <trkpt lat="45.38713" lon="5.94768">
        <ele>409.653612767</ele>
        <time>2016-09-04T12:44:39Z</time>
      </trkpt>
      <trkpt lat="45.38713" lon="5.94768">
        <ele>409.653612767</ele>
        <time>2016-09-04T12:44:44Z</time>
      </trkpt>
      <trkpt lat="45.38713" lon="5.94768">
        <ele>409.653612767</ele>
        <time>2016-09-04T12:44:54Z</time>
      </trkpt>
      <trkpt lat="45.38713" lon="5.94767">
        <ele>409.653612767</ele>
        <time>2016-09-04T12:44:59Z</time>
      </trkpt>
      <trkpt lat="45.38714" lon="5.94746">
        <ele>411.394781377</ele>
        <time>2016-09-04T12:45:09Z</time>
      </trkpt>
      <trkpt lat="45.38708" lon="5.94737">
        <ele>411.394781377</ele>
        <time>2016-09-04T12:45:14Z</time>
      </trkpt>
      <trkpt lat="45.38708" lon="5.94734">
        <ele>414.057801708</ele>
        <time>2016-09-04T12:45:24Z</time>
      </trkpt>
      <trkpt lat="45.38708" lon="5.94735">
        <ele>414.057801708</ele>
        <time>2016-09-04T12:45:29Z</time>
      </trkpt>
      <trkpt lat="45.38709" lon="5.94735">
        <ele>414.057801708</ele>
        <time>2016-09-04T12:45:39Z</time>
      </trkpt>
      <trkpt lat="45.38709" lon="5.94735">
        <ele>414.057801708</ele>
        <time>2016-09-04T12:45:44Z</time>
      </trkpt>
      <trkpt lat="45.38709" lon="5.94734">
        <ele>414.057801708</ele>
        <time>2016-09-04T12:45:59Z</time>
      </trkpt>
      <trkpt lat="45.38715" lon="5.94734">
        <ele>414.057801708</ele>
        <time>2016-09-04T12:46:04Z</time>
      </trkpt>
      <trkpt lat="45.38721" lon="5.9473">
        <ele>415.405649754</ele>
        <time>2016-09-04T12:46:14Z</time>
      </trkpt>
      <trkpt lat="45.38724" lon="5.94728">
        <ele>415.405649754</ele>
        <time>2016-09-04T12:46:19Z</time>
      </trkpt>
      <trkpt lat="45.38732" lon="5.94717">
        <ele>417.26570692</ele>
        <time>2016-09-04T12:46:29Z</time>
      </trkpt>
      <trkpt lat="45.38737" lon="5.94717">
        <ele>417.26570692</ele>
        <time>2016-09-04T12:46:34Z</time>
      </trkpt>
      <trkpt lat="45.38739" lon="5.94714">
        <ele>417.26570692</ele>
        <time>2016-09-04T12:46:44Z</time>
      </trkpt>
      <trkpt lat="45.3874" lon="5.94713">
        <ele>417.26570692</ele>
        <time>2016-09-04T12:46:49Z</time>
      </trkpt>
      <trkpt lat="45.38747" lon="5.94702">
        <ele>418.732644609</ele>
        <time>2016-09-04T12:47:00Z</time>
      </trkpt>
      <trkpt lat="45.38755" lon="5.94698">
        <ele>418.732644609</ele>
        <time>2016-09-04T12:47:04Z</time>
      </trkpt>
      <trkpt lat="45.38761" lon="5.94694">
        <ele>421.853098943</ele>
        <time>2016-09-04T12:47:14Z</time>
      </trkpt>
      <trkpt lat="45.38763" lon="5.94691">
        <ele>421.853098943</ele>
        <time>2016-09-04T12:47:19Z</time>
      </trkpt>
      <trkpt lat="45.38764" lon="5.94679">
        <ele>425.634670196</ele>
        <time>2016-09-04T12:47:29Z</time>
      </trkpt>
      <trkpt lat="45.38764" lon="5.94677">
        <ele>425.634670196</ele>
        <time>2016-09-04T12:47:34Z</time>
      </trkpt>
      <trkpt lat="45.3877" lon="5.94675">
        <ele>425.634670196</ele>
        <time>2016-09-04T12:47:44Z</time>
      </trkpt>
      <trkpt lat="45.38768" lon="5.94665">
        <ele>428.435610305</ele>
        <time>2016-09-04T12:47:49Z</time>
      </trkpt>
      <trkpt lat="45.3877" lon="5.94667">
        <ele>428.435610305</ele>
        <time>2016-09-04T12:47:59Z</time>
      </trkpt>
      <trkpt lat="45.38769" lon="5.94667">
        <ele>428.435610305</ele>
        <time>2016-09-04T12:48:04Z</time>
      </trkpt>
      <trkpt lat="45.38769" lon="5.94667">
        <ele>428.435610305</ele>
        <time>2016-09-04T12:48:14Z</time>
      </trkpt>
      <trkpt lat="45.38769" lon="5.94667">
        <ele>428.435610305</ele>
        <time>2016-09-04T12:48:19Z</time>
      </trkpt>
      <trkpt lat="45.38769" lon="5.94667">
        <ele>428.435610305</ele>
        <time>2016-09-04T12:48:34Z</time>
      </trkpt>
      <trkpt lat="45.38769" lon="5.94667">
        <ele>428.435610305</ele>
        <time>2016-09-04T12:48:39Z</time>
      </trkpt>
      <trkpt lat="45.38769" lon="5.94667">
        <ele>428.435610305</ele>
        <time>2016-09-04T12:48:49Z</time>
      </trkpt>
      <trkpt lat="45.38775" lon="5.94653">
        <ele>430.90037712</ele>
        <time>2016-09-04T12:48:54Z</time>
      </trkpt>
      <trkpt lat="45.38789" lon="5.9464">
        <ele>433.771264443</ele>
        <time>2016-09-04T12:49:04Z</time>
      </trkpt>
      <trkpt lat="45.38793" lon="5.94632">
        <ele>433.771264443</ele>
        <time>2016-09-04T12:49:09Z</time>
      </trkpt>
      <trkpt lat="45.38792" lon="5.94628">
        <ele>436.149024713</ele>
        <time>2016-09-04T12:49:19Z</time>
      </trkpt>
      <trkpt lat="45.38797" lon="5.94624">
        <ele>436.149024713</ele>
        <time>2016-09-04T12:49:24Z</time>
      </trkpt>
      <trkpt lat="45.38797" lon="5.94619">
        <ele>438.643817249</ele>
        <time>2016-09-04T12:49:29Z</time>
      </trkpt>
      <trkpt lat="45.38798" lon="5.9461">
        <ele>438.643817249</ele>
        <time>2016-09-04T12:49:34Z</time>
      </trkpt>
      <trkpt lat="45.38801" lon="5.94611">
        <ele>440.811443632</ele>
        <time>2016-09-04T12:49:44Z</time>
      </trkpt>
      <trkpt lat="45.38801" lon="5.94611">
        <ele>440.811443632</ele>
        <time>2016-09-04T12:49:49Z</time>
      </trkpt>
      <trkpt lat="45.38803" lon="5.94608">
        <ele>440.811443632</ele>
        <time>2016-09-04T12:49:59Z</time>
      </trkpt>
      <trkpt lat="45.38803" lon="5.94607">
        <ele>440.811443632</ele>
        <time>2016-09-04T12:50:04Z</time>
      </trkpt>
      <trkpt lat="45.38803" lon="5.94607">
        <ele>440.811443632</ele>
        <time>2016-09-04T12:50:14Z</time>
      </trkpt>
      <trkpt lat="45.38807" lon="5.94603">
        <ele>442.385529978</ele>
        <time>2016-09-04T12:50:19Z</time>
      </trkpt>
      <trkpt lat="45.38816" lon="5.94579">
        <ele>444.130563453</ele>
        <time>2016-09-04T12:50:29Z</time>
      </trkpt>
      <trkpt lat="45.38822" lon="5.94576">
        <ele>444.130563453</ele>
        <time>2016-09-04T12:50:34Z</time>
      </trkpt>
      <trkpt lat="45.38824" lon="5.94567">
        <ele>445.312352397</ele>
        <time>2016-09-04T12:50:49Z</time>
      </trkpt>
      <trkpt lat="45.38823" lon="5.9457">
        <ele>445.312352397</ele>
        <time>2016-09-04T12:50:54Z</time>
      </trkpt>
      <trkpt lat="45.3882" lon="5.94568">
        <ele>445.312352397</ele>
        <time>2016-09-04T12:51:04Z</time>
      </trkpt>
      <trkpt lat="45.3882" lon="5.94568">
        <ele>445.312352397</ele>
        <time>2016-09-04T12:51:09Z</time>
      </trkpt>
      <trkpt lat="45.38819" lon="5.94568">
        <ele>445.312352397</ele>
        <time>2016-09-04T12:51:19Z</time>
      </trkpt>
      <trkpt lat="45.38819" lon="5.94568">
        <ele>445.312352397</ele>
        <time>2016-09-04T12:51:24Z</time>
      </trkpt>
      <trkpt lat="45.38819" lon="5.94568">
        <ele>445.312352397</ele>
        <time>2016-09-04T12:51:34Z</time>
      </trkpt>
      <trkpt lat="45.38819" lon="5.94568">
        <ele>445.312352397</ele>
        <time>2016-09-04T12:51:39Z</time>
      </trkpt>
      <trkpt lat="45.38819" lon="5.94568">
        <ele>445.312352397</ele>
        <time>2016-09-04T12:51:49Z</time>
      </trkpt>
      <trkpt lat="45.38819" lon="5.94568">
        <ele>445.312352397</ele>
        <time>2016-09-04T12:51:54Z</time>
      </trkpt>
      <trkpt lat="45.3881" lon="5.94579">
        <ele>446.261888653</ele>
        <time>2016-09-04T12:52:04Z</time>
      </trkpt>
      <trkpt lat="45.38812" lon="5.94583">
        <ele>446.261888653</ele>
        <time>2016-09-04T12:52:09Z</time>
      </trkpt>
      <trkpt lat="45.38816" lon="5.94591">
        <ele>447.430877203</ele>
        <time>2016-09-04T12:52:19Z</time>
      </trkpt>
      <trkpt lat="45.38814" lon="5.94595">
        <ele>447.430877203</ele>
        <time>2016-09-04T12:52:24Z</time>
      </trkpt>
      <trkpt lat="45.38814" lon="5.94596">
        <ele>447.430877203</ele>
        <time>2016-09-04T12:52:34Z</time>
      </trkpt>
      <trkpt lat="45.38814" lon="5.94596">
        <ele>447.430877203</ele>
        <time>2016-09-04T12:52:39Z</time>
      </trkpt>
      <trkpt lat="45.38825" lon="5.946">
        <ele>449.958535359</ele>
        <time>2016-09-04T12:52:54Z</time>
      </trkpt>
      <trkpt lat="45.38831" lon="5.94592">
        <ele>449.958535359</ele>
        <time>2016-09-04T12:52:59Z</time>
      </trkpt>
      <trkpt lat="45.38838" lon="5.94588">
        <ele>452.732983111</ele>
        <time>2016-09-04T12:53:09Z</time>
      </trkpt>
      <trkpt lat="45.38839" lon="5.94585">
        <ele>452.732983111</ele>
        <time>2016-09-04T12:53:14Z</time>
      </trkpt>
      <trkpt lat="45.3884" lon="5.9458">
        <ele>452.732983111</ele>
        <time>2016-09-04T12:53:24Z</time>
      </trkpt>
      <trkpt lat="45.3884" lon="5.9458">
        <ele>452.732983111</ele>
        <time>2016-09-04T12:53:29Z</time>
      </trkpt>
      <trkpt lat="45.38841" lon="5.94564">
        <ele>456.165840207</ele>
        <time>2016-09-04T12:53:39Z</time>
      </trkpt>
      <trkpt lat="45.38845" lon="5.94567">
        <ele>456.165840207</ele>
        <time>2016-09-04T12:53:44Z</time>
      </trkpt>
      <trkpt lat="45.38847" lon="5.94558">
        <ele>459.194244376</ele>
        <time>2016-09-04T12:53:54Z</time>
      </trkpt>
      <trkpt lat="45.38846" lon="5.94557">
        <ele>459.194244376</ele>
        <time>2016-09-04T12:53:59Z</time>
      </trkpt>
      <trkpt lat="45.38847" lon="5.94554">
        <ele>459.194244376</ele>
        <time>2016-09-04T12:54:04Z</time>
      </trkpt>
      <trkpt lat="45.38849" lon="5.94546">
        <ele>462.132902608</ele>
        <time>2016-09-04T12:54:09Z</time>
      </trkpt>
      <trkpt lat="45.3885" lon="5.94525">
        <ele>464.408287317</ele>
        <time>2016-09-04T12:54:19Z</time>
      </trkpt>
      <trkpt lat="45.3885" lon="5.94519">
        <ele>464.408287317</ele>
        <time>2016-09-04T12:54:24Z</time>
      </trkpt>
      <trkpt lat="45.38849" lon="5.94512">
        <ele>466.789162443</ele>
        <time>2016-09-04T12:54:29Z</time>
      </trkpt>
      <trkpt lat="45.38853" lon="5.94508">
        <ele>466.789162443</ele>
        <time>2016-09-04T12:54:34Z</time>
      </trkpt>
      <trkpt lat="45.38857" lon="5.94485">
        <ele>468.112507945</ele>
        <time>2016-09-04T12:54:49Z</time>
      </trkpt>
      <trkpt lat="45.38859" lon="5.94476">
        <ele>468.112507945</ele>
        <time>2016-09-04T12:54:54Z</time>
      </trkpt>
      <trkpt lat="45.38859" lon="5.94461">
        <ele>469.323146416</ele>
        <time>2016-09-04T12:55:04Z</time>
      </trkpt>
      <trkpt lat="45.38862" lon="5.94457">
        <ele>469.323146416</ele>
        <time>2016-09-04T12:55:09Z</time>
      </trkpt>
      <trkpt lat="45.38868" lon="5.94445">
        <ele>471.008270171</ele>
        <time>2016-09-04T12:55:19Z</time>
      </trkpt>
      <trkpt lat="45.38872" lon="5.9444">
        <ele>471.008270171</ele>
        <time>2016-09-04T12:55:24Z</time>
      </trkpt>
      <trkpt lat="45.38867" lon="5.94428">
        <ele>473.854753821</ele>
        <time>2016-09-04T12:55:34Z</time>
      </trkpt>
      <trkpt lat="45.38869" lon="5.94419">
        <ele>473.854753821</ele>
        <time>2016-09-04T12:55:39Z</time>
      </trkpt>
      <trkpt lat="45.38867" lon="5.94416">
        <ele>476.476818256</ele>
        <time>2016-09-04T12:55:49Z</time>
      </trkpt>
      <trkpt lat="45.38872" lon="5.94417">
        <ele>476.476818256</ele>
        <time>2016-09-04T12:55:54Z</time>
      </trkpt>
      <trkpt lat="45.3888" lon="5.94417">
        <ele>479.754408901</ele>
        <time>2016-09-04T12:56:04Z</time>
      </trkpt>
      <trkpt lat="45.38882" lon="5.94411">
        <ele>479.754408901</ele>
        <time>2016-09-04T12:56:09Z</time>
      </trkpt>
      <trkpt lat="45.38887" lon="5.9441">
        <ele>483.058981586</ele>
        <time>2016-09-04T12:56:19Z</time>
      </trkpt>
      <trkpt lat="45.38885" lon="5.9441">
        <ele>483.058981586</ele>
        <time>2016-09-04T12:56:24Z</time>
      </trkpt>
      <trkpt lat="45.38887" lon="5.94412">
        <ele>483.058981586</ele>
        <time>2016-09-04T12:56:39Z</time>
      </trkpt>
      <trkpt lat="45.38887" lon="5.94413">
        <ele>483.058981586</ele>
        <time>2016-09-04T12:56:44Z</time>
      </trkpt>
      <trkpt lat="45.38887" lon="5.94413">
        <ele>483.058981586</ele>
        <time>2016-09-04T12:56:54Z</time>
      </trkpt>
      <trkpt lat="45.38887" lon="5.94413">
        <ele>483.058981586</ele>
        <time>2016-09-04T12:56:59Z</time>
      </trkpt>
      <trkpt lat="45.38887" lon="5.94413">
        <ele>483.058981586</ele>
        <time>2016-09-04T12:57:09Z</time>
      </trkpt>
      <trkpt lat="45.38891" lon="5.94416">
        <ele>486.385016029</ele>
        <time>2016-09-04T12:57:14Z</time>
      </trkpt>
      <trkpt lat="45.38896" lon="5.94414">
        <ele>486.385016029</ele>
        <time>2016-09-04T12:57:24Z</time>
      </trkpt>
      <trkpt lat="45.38897" lon="5.94414">
        <ele>486.385016029</ele>
        <time>2016-09-04T12:57:29Z</time>
      </trkpt>
      <trkpt lat="45.38897" lon="5.94414">
        <ele>486.385016029</ele>
        <time>2016-09-04T12:57:39Z</time>
      </trkpt>
      <trkpt lat="45.38897" lon="5.94414">
        <ele>486.385016029</ele>
        <time>2016-09-04T12:57:44Z</time>
      </trkpt>
      <trkpt lat="45.389" lon="5.94406">
        <ele>488.71819526</ele>
        <time>2016-09-04T12:57:54Z</time>
      </trkpt>
      <trkpt lat="45.38901" lon="5.94389">
        <ele>490.275101818</ele>
        <time>2016-09-04T12:57:59Z</time>
      </trkpt>
      <trkpt lat="45.389" lon="5.94388">
        <ele>490.275101818</ele>
        <time>2016-09-04T12:58:09Z</time>
      </trkpt>
      <trkpt lat="45.389" lon="5.94388">
        <ele>490.275101818</ele>
        <time>2016-09-04T12:58:14Z</time>
      </trkpt>
      <trkpt lat="45.38898" lon="5.94388">
        <ele>490.275101818</ele>
        <time>2016-09-04T12:58:39Z</time>
      </trkpt>
      <trkpt lat="45.38896" lon="5.94387">
        <ele>490.275101818</ele>
        <time>2016-09-04T12:58:44Z</time>
      </trkpt>
      <trkpt lat="45.38896" lon="5.94387">
        <ele>490.275101818</ele>
        <time>2016-09-04T12:58:54Z</time>
      </trkpt>
      <trkpt lat="45.38896" lon="5.94387">
        <ele>490.275101818</ele>
        <time>2016-09-04T12:58:59Z</time>
      </trkpt>
      <trkpt lat="45.38896" lon="5.94386">
        <ele>490.275101818</ele>
        <time>2016-09-04T12:59:09Z</time>
      </trkpt>
      <trkpt lat="45.38897" lon="5.94388">
        <ele>490.275101818</ele>
        <time>2016-09-04T12:59:14Z</time>
      </trkpt>
      <trkpt lat="45.38896" lon="5.94389">
        <ele>490.275101818</ele>
        <time>2016-09-04T12:59:24Z</time>
      </trkpt>
      <trkpt lat="45.38896" lon="5.94389">
        <ele>490.275101818</ele>
        <time>2016-09-04T12:59:29Z</time>
      </trkpt>
      <trkpt lat="45.38896" lon="5.94389">
        <ele>490.275101818</ele>
        <time>2016-09-04T12:59:39Z</time>
      </trkpt>
      <trkpt lat="45.38896" lon="5.94389">
        <ele>490.275101818</ele>
        <time>2016-09-04T12:59:44Z</time>
      </trkpt>
      <trkpt lat="45.38896" lon="5.94389">
        <ele>490.275101818</ele>
        <time>2016-09-04T12:59:59Z</time>
      </trkpt>
      <trkpt lat="45.38896" lon="5.94389">
        <ele>490.275101818</ele>
        <time>2016-09-04T13:00:04Z</time>
      </trkpt>
      <trkpt lat="45.38896" lon="5.94389">
        <ele>490.275101818</ele>
        <time>2016-09-04T13:00:14Z</time>
      </trkpt>
      <trkpt lat="45.38893" lon="5.9439">
        <ele>490.537801739</ele>
        <time>2016-09-04T13:00:19Z</time>
      </trkpt>
      <trkpt lat="45.38889" lon="5.94393">
        <ele>490.537801739</ele>
        <time>2016-09-04T13:00:29Z</time>
      </trkpt>
      <trkpt lat="45.38889" lon="5.94393">
        <ele>490.537801739</ele>
        <time>2016-09-04T13:00:34Z</time>
      </trkpt>
      <trkpt lat="45.38889" lon="5.94393">
        <ele>490.537801739</ele>
        <time>2016-09-04T13:00:44Z</time>
      </trkpt>
      <trkpt lat="45.38889" lon="5.94393">
        <ele>490.537801739</ele>
        <time>2016-09-04T13:00:49Z</time>
      </trkpt>
      <trkpt lat="45.38876" lon="5.94395">
        <ele>490.183402107</ele>
        <time>2016-09-04T13:00:59Z</time>
      </trkpt>
      <trkpt lat="45.38878" lon="5.94394">
        <ele>490.183402107</ele>
        <time>2016-09-04T13:01:04Z</time>
      </trkpt>
      <trkpt lat="45.38877" lon="5.94395">
        <ele>490.183402107</ele>
        <time>2016-09-04T13:01:14Z</time>
      </trkpt>
      <trkpt lat="45.38877" lon="5.94396">
        <ele>490.183402107</ele>
        <time>2016-09-04T13:01:19Z</time>
      </trkpt>
      <trkpt lat="45.38867" lon="5.94395">
        <ele>490.273357823</ele>
        <time>2016-09-04T13:01:29Z</time>
      </trkpt>
      <trkpt lat="45.38858" lon="5.94392">
        <ele>490.492478477</ele>
        <time>2016-09-04T13:01:34Z</time>
      </trkpt>
      <trkpt lat="45.38862" lon="5.94394">
        <ele>490.492478477</ele>
        <time>2016-09-04T13:01:44Z</time>
      </trkpt>
      <trkpt lat="45.38862" lon="5.94394">
        <ele>490.492478477</ele>
        <time>2016-09-04T13:01:49Z</time>
      </trkpt>
      <trkpt lat="45.38865" lon="5.94394">
        <ele>490.492478477</ele>
        <time>2016-09-04T13:01:59Z</time>
      </trkpt>
      <trkpt lat="45.38865" lon="5.94394">
        <ele>490.492478477</ele>
        <time>2016-09-04T13:02:04Z</time>
      </trkpt>
      <trkpt lat="45.38865" lon="5.94394">
        <ele>490.492478477</ele>
        <time>2016-09-04T13:02:19Z</time>
      </trkpt>
      <trkpt lat="45.38869" lon="5.94393">
        <ele>493.719447544</ele>
        <time>2016-09-04T13:02:24Z</time>
      </trkpt>
      <trkpt lat="45.38879" lon="5.94381">
        <ele>496.991512393</ele>
        <time>2016-09-04T13:02:34Z</time>
      </trkpt>
      <trkpt lat="45.38883" lon="5.94385">
        <ele>496.991512393</ele>
        <time>2016-09-04T13:02:40Z</time>
      </trkpt>
      <trkpt lat="45.38888" lon="5.94382">
        <ele>499.869853687</ele>
        <time>2016-09-04T13:02:49Z</time>
      </trkpt>
      <trkpt lat="45.38887" lon="5.94381">
        <ele>499.869853687</ele>
        <time>2016-09-04T13:02:54Z</time>
      </trkpt>
      <trkpt lat="45.3889" lon="5.94375">
        <ele>499.869853687</ele>
        <time>2016-09-04T13:03:04Z</time>
      </trkpt>
      <trkpt lat="45.38891" lon="5.94371">
        <ele>503.822671272</ele>
        <time>2016-09-04T13:03:09Z</time>
      </trkpt>
      <trkpt lat="45.38891" lon="5.94372">
        <ele>503.822671272</ele>
        <time>2016-09-04T13:03:14Z</time>
      </trkpt>
      <trkpt lat="45.38891" lon="5.94372">
        <ele>503.822671272</ele>
        <time>2016-09-04T13:03:19Z</time>
      </trkpt>
      <trkpt lat="45.38898" lon="5.94372">
        <ele>503.822671272</ele>
        <time>2016-09-04T13:03:29Z</time>
      </trkpt>
      <trkpt lat="45.38905" lon="5.9437">
        <ele>506.892359915</ele>
        <time>2016-09-04T13:03:34Z</time>
      </trkpt>
      <trkpt lat="45.3891" lon="5.94372">
        <ele>506.892359915</ele>
        <time>2016-09-04T13:03:44Z</time>
      </trkpt>
      <trkpt lat="45.38912" lon="5.94368">
        <ele>508.564839688</ele>
        <time>2016-09-04T13:03:49Z</time>
      </trkpt>
      <trkpt lat="45.38915" lon="5.94365">
        <ele>508.564839688</ele>
        <time>2016-09-04T13:03:59Z</time>
      </trkpt>
      <trkpt lat="45.38916" lon="5.94363">
        <ele>508.564839688</ele>
        <time>2016-09-04T13:04:04Z</time>
      </trkpt>
      <trkpt lat="45.38916" lon="5.94363">
        <ele>508.564839688</ele>
        <time>2016-09-04T13:04:14Z</time>
      </trkpt>
      <trkpt lat="45.38916" lon="5.94363">
        <ele>508.564839688</ele>
        <time>2016-09-04T13:04:19Z</time>
      </trkpt>
      <trkpt lat="45.38916" lon="5.94363">
        <ele>508.564839688</ele>
        <time>2016-09-04T13:04:29Z</time>
      </trkpt>
      <trkpt lat="45.38916" lon="5.94363">
        <ele>508.564839688</ele>
        <time>2016-09-04T13:04:34Z</time>
      </trkpt>
      <trkpt lat="45.38921" lon="5.94362">
        <ele>509.95305327</ele>
        <time>2016-09-04T13:04:44Z</time>
      </trkpt>
      <trkpt lat="45.38924" lon="5.94358">
        <ele>509.95305327</ele>
        <time>2016-09-04T13:04:50Z</time>
      </trkpt>
      <trkpt lat="45.38926" lon="5.94358">
        <ele>509.95305327</ele>
        <time>2016-09-04T13:04:59Z</time>
      </trkpt>
      <trkpt lat="45.38927" lon="5.94355">
        <ele>509.95305327</ele>
        <time>2016-09-04T13:05:04Z</time>
      </trkpt>
      <trkpt lat="45.38936" lon="5.9435">
        <ele>512.521291198</ele>
        <time>2016-09-04T13:05:19Z</time>
      </trkpt>
      <trkpt lat="45.38937" lon="5.94351">
        <ele>512.521291198</ele>
        <time>2016-09-04T13:05:24Z</time>
      </trkpt>
      <trkpt lat="45.38943" lon="5.94347">
        <ele>512.521291198</ele>
        <time>2016-09-04T13:05:34Z</time>
      </trkpt>
      <trkpt lat="45.38945" lon="5.94348">
        <ele>514.452393796</ele>
        <time>2016-09-04T13:05:39Z</time>
      </trkpt>
      <trkpt lat="45.38946" lon="5.9434">
        <ele>514.452393796</ele>
        <time>2016-09-04T13:05:49Z</time>
      </trkpt>
      <trkpt lat="45.38945" lon="5.94335">
        <ele>514.452393796</ele>
        <time>2016-09-04T13:05:54Z</time>
      </trkpt>
      <trkpt lat="45.38946" lon="5.94327">
        <ele>516.658610586</ele>
        <time>2016-09-04T13:06:04Z</time>
      </trkpt>
      <trkpt lat="45.38946" lon="5.94327">
        <ele>516.658610586</ele>
        <time>2016-09-04T13:06:09Z</time>
      </trkpt>
      <trkpt lat="45.38951" lon="5.94325">
        <ele>516.658610586</ele>
        <time>2016-09-04T13:06:19Z</time>
      </trkpt>
      <trkpt lat="45.38951" lon="5.94325">
        <ele>516.658610586</ele>
        <time>2016-09-04T13:06:24Z</time>
      </trkpt>
      <trkpt lat="45.38957" lon="5.94319">
        <ele>519.552056161</ele>
        <time>2016-09-04T13:06:34Z</time>
      </trkpt>
      <trkpt lat="45.38958" lon="5.94317">
        <ele>519.552056161</ele>
        <time>2016-09-04T13:06:39Z</time>
      </trkpt>
      <trkpt lat="45.38954" lon="5.94307">
        <ele>522.503864074</ele>
        <time>2016-09-04T13:06:49Z</time>
      </trkpt>
      <trkpt lat="45.38955" lon="5.94306">
        <ele>522.503864074</ele>
        <time>2016-09-04T13:06:55Z</time>
      </trkpt>
      <trkpt lat="45.38951" lon="5.94306">
        <ele>522.503864074</ele>
        <time>2016-09-04T13:06:59Z</time>
      </trkpt>
      <trkpt lat="45.38945" lon="5.94306">
        <ele>525.075339773</ele>
        <time>2016-09-04T13:07:09Z</time>
      </trkpt>
      <trkpt lat="45.38945" lon="5.94307">
        <ele>525.075339773</ele>
        <time>2016-09-04T13:07:14Z</time>
      </trkpt>
      <trkpt lat="45.38946" lon="5.94307">
        <ele>525.075339773</ele>
        <time>2016-09-04T13:07:24Z</time>
      </trkpt>
      <trkpt lat="45.38946" lon="5.94308">
        <ele>525.075339773</ele>
        <time>2016-09-04T13:07:29Z</time>
      </trkpt>
      <trkpt lat="45.38946" lon="5.94308">
        <ele>525.075339773</ele>
        <time>2016-09-04T13:07:39Z</time>
      </trkpt>
      <trkpt lat="45.38946" lon="5.94308">
        <ele>525.075339773</ele>
        <time>2016-09-04T13:07:44Z</time>
      </trkpt>
      <trkpt lat="45.38946" lon="5.94306">
        <ele>525.075339773</ele>
        <time>2016-09-04T13:07:54Z</time>
      </trkpt>
      <trkpt lat="45.38941" lon="5.94304">
        <ele>525.075339773</ele>
        <time>2016-09-04T13:07:59Z</time>
      </trkpt>
      <trkpt lat="45.38941" lon="5.94303">
        <ele>525.075339773</ele>
        <time>2016-09-04T13:08:14Z</time>
      </trkpt>
      <trkpt lat="45.38941" lon="5.94303">
        <ele>525.075339773</ele>
        <time>2016-09-04T13:08:19Z</time>
      </trkpt>
      <trkpt lat="45.38941" lon="5.94303">
        <ele>525.075339773</ele>
        <time>2016-09-04T13:08:29Z</time>
      </trkpt>
      <trkpt lat="45.38944" lon="5.94294">
        <ele>526.716989575</ele>
        <time>2016-09-04T13:08:34Z</time>
      </trkpt>
      <trkpt lat="45.38942" lon="5.94291">
        <ele>526.716989575</ele>
        <time>2016-09-04T13:08:39Z</time>
      </trkpt>
      <trkpt lat="45.38944" lon="5.94293">
        <ele>526.716989575</ele>
        <time>2016-09-04T13:08:44Z</time>
      </trkpt>
      <trkpt lat="45.38945" lon="5.94291">
        <ele>526.716989575</ele>
        <time>2016-09-04T13:08:49Z</time>
      </trkpt>
      <trkpt lat="45.38949" lon="5.9429">
        <ele>529.51633821</ele>
        <time>2016-09-04T13:08:59Z</time>
      </trkpt>
      <trkpt lat="45.38956" lon="5.94289">
        <ele>529.51633821</ele>
        <time>2016-09-04T13:09:04Z</time>
      </trkpt>
      <trkpt lat="45.38966" lon="5.94278">
        <ele>532.666195577</ele>
        <time>2016-09-04T13:09:14Z</time>
      </trkpt>
      <trkpt lat="45.38968" lon="5.94278">
        <ele>532.666195577</ele>
        <time>2016-09-04T13:09:19Z</time>
      </trkpt>
      <trkpt lat="45.38972" lon="5.94258">
        <ele>536.138271727</ele>
        <time>2016-09-04T13:09:34Z</time>
      </trkpt>
      <trkpt lat="45.38973" lon="5.94254">
        <ele>536.138271727</ele>
        <time>2016-09-04T13:09:39Z</time>
      </trkpt>
      <trkpt lat="45.38964" lon="5.94254">
        <ele>539.040800135</ele>
        <time>2016-09-04T13:09:49Z</time>
      </trkpt>
      <trkpt lat="45.38967" lon="5.94252">
        <ele>539.040800135</ele>
        <time>2016-09-04T13:09:54Z</time>
      </trkpt>
      <trkpt lat="45.38961" lon="5.9424">
        <ele>542.278507241</ele>
        <time>2016-09-04T13:10:04Z</time>
      </trkpt>
      <trkpt lat="45.38967" lon="5.94242">
        <ele>542.278507241</ele>
        <time>2016-09-04T13:10:09Z</time>
      </trkpt>
      <trkpt lat="45.38969" lon="5.94243">
        <ele>542.278507241</ele>
        <time>2016-09-04T13:10:19Z</time>
      </trkpt>
      <trkpt lat="45.38969" lon="5.94242">
        <ele>542.278507241</ele>
        <time>2016-09-04T13:10:24Z</time>
      </trkpt>
      <trkpt lat="45.38969" lon="5.94242">
        <ele>542.278507241</ele>
        <time>2016-09-04T13:10:34Z</time>
      </trkpt>
      <trkpt lat="45.38969" lon="5.94242">
        <ele>542.278507241</ele>
        <time>2016-09-04T13:10:39Z</time>
      </trkpt>
      <trkpt lat="45.38966" lon="5.94229">
        <ele>546.256421298</ele>
        <time>2016-09-04T13:10:49Z</time>
      </trkpt>
      <trkpt lat="45.38968" lon="5.94228">
        <ele>546.256421298</ele>
        <time>2016-09-04T13:10:54Z</time>
      </trkpt>
      <trkpt lat="45.38969" lon="5.94226">
        <ele>546.256421298</ele>
        <time>2016-09-04T13:11:04Z</time>
      </trkpt>
      <trkpt lat="45.38971" lon="5.94221">
        <ele>546.256421298</ele>
        <time>2016-09-04T13:11:09Z</time>
      </trkpt>
      <trkpt lat="45.38981" lon="5.94214">
        <ele>551.203676803</ele>
        <time>2016-09-04T13:11:19Z</time>
      </trkpt>
      <trkpt lat="45.38979" lon="5.94214">
        <ele>551.203676803</ele>
        <time>2016-09-04T13:11:24Z</time>
      </trkpt>
      <trkpt lat="45.38982" lon="5.94206">
        <ele>551.203676803</ele>
        <time>2016-09-04T13:11:39Z</time>
      </trkpt>
      <trkpt lat="45.38979" lon="5.94204">
        <ele>555.312318719</ele>
        <time>2016-09-04T13:11:44Z</time>
      </trkpt>
      <trkpt lat="45.3898" lon="5.94205">
        <ele>555.312318719</ele>
        <time>2016-09-04T13:11:54Z</time>
      </trkpt>
      <trkpt lat="45.3898" lon="5.94205">
        <ele>555.312318719</ele>
        <time>2016-09-04T13:11:59Z</time>
      </trkpt>
      <trkpt lat="45.3898" lon="5.94205">
        <ele>555.312318719</ele>
        <time>2016-09-04T13:12:09Z</time>
      </trkpt>
      <trkpt lat="45.3898" lon="5.94205">
        <ele>555.312318719</ele>
        <time>2016-09-04T13:12:14Z</time>
      </trkpt>
      <trkpt lat="45.3898" lon="5.94205">
        <ele>555.312318719</ele>
        <time>2016-09-04T13:12:19Z</time>
      </trkpt>
      <trkpt lat="45.3898" lon="5.94205">
        <ele>555.312318719</ele>
        <time>2016-09-04T13:12:24Z</time>
      </trkpt>
      <trkpt lat="45.38966" lon="5.94198">
        <ele>559.647786647</ele>
        <time>2016-09-04T13:12:34Z</time>
      </trkpt>
      <trkpt lat="45.38966" lon="5.94196">
        <ele>559.647786647</ele>
        <time>2016-09-04T13:12:39Z</time>
      </trkpt>
      <trkpt lat="45.38968" lon="5.94199">
        <ele>559.647786647</ele>
        <time>2016-09-04T13:12:44Z</time>
      </trkpt>
      <trkpt lat="45.38968" lon="5.94199">
        <ele>559.647786647</ele>
        <time>2016-09-04T13:12:50Z</time>
      </trkpt>
      <trkpt lat="45.38968" lon="5.94199">
        <ele>559.647786647</ele>
        <time>2016-09-04T13:12:59Z</time>
      </trkpt>
      <trkpt lat="45.38968" lon="5.94199">
        <ele>559.647786647</ele>
        <time>2016-09-04T13:13:04Z</time>
      </trkpt>
      <trkpt lat="45.38968" lon="5.94199">
        <ele>559.647786647</ele>
        <time>2016-09-04T13:13:14Z</time>
      </trkpt>
      <trkpt lat="45.38969" lon="5.94197">
        <ele>559.647786647</ele>
        <time>2016-09-04T13:13:19Z</time>
      </trkpt>
      <trkpt lat="45.38969" lon="5.9419">
        <ele>565.629047985</ele>
        <time>2016-09-04T13:13:29Z</time>
      </trkpt>
      <trkpt lat="45.38969" lon="5.94188">
        <ele>565.629047985</ele>
        <time>2016-09-04T13:13:34Z</time>
      </trkpt>
      <trkpt lat="45.38968" lon="5.94188">
        <ele>565.629047985</ele>
        <time>2016-09-04T13:13:44Z</time>
      </trkpt>
      <trkpt lat="45.38969" lon="5.94188">
        <ele>565.629047985</ele>
        <time>2016-09-04T13:13:49Z</time>
      </trkpt>
      <trkpt lat="45.38969" lon="5.94188">
        <ele>565.629047985</ele>
        <time>2016-09-04T13:14:04Z</time>
      </trkpt>
      <trkpt lat="45.38964" lon="5.94182">
        <ele>570.531108605</ele>
        <time>2016-09-04T13:14:09Z</time>
      </trkpt>
      <trkpt lat="45.38958" lon="5.94176">
        <ele>570.531108605</ele>
        <time>2016-09-04T13:14:19Z</time>
      </trkpt>
      <trkpt lat="45.38962" lon="5.94168">
        <ele>573.129312741</ele>
        <time>2016-09-04T13:14:24Z</time>
      </trkpt>
      <trkpt lat="45.38968" lon="5.94161">
        <ele>573.129312741</ele>
        <time>2016-09-04T13:14:34Z</time>
      </trkpt>
      <trkpt lat="45.3897" lon="5.94155">
        <ele>575.321955615</ele>
        <time>2016-09-04T13:14:39Z</time>
      </trkpt>
      <trkpt lat="45.38979" lon="5.94164">
        <ele>577.427989155</ele>
        <time>2016-09-04T13:14:49Z</time>
      </trkpt>
      <trkpt lat="45.38984" lon="5.94162">
        <ele>577.427989155</ele>
        <time>2016-09-04T13:14:54Z</time>
      </trkpt>
      <trkpt lat="45.3899" lon="5.94156">
        <ele>578.878594227</ele>
        <time>2016-09-04T13:15:04Z</time>
      </trkpt>
      <trkpt lat="45.38988" lon="5.94157">
        <ele>578.878594227</ele>
        <time>2016-09-04T13:15:09Z</time>
      </trkpt>
      <trkpt lat="45.38993" lon="5.94152">
        <ele>578.878594227</ele>
        <time>2016-09-04T13:15:19Z</time>
      </trkpt>
      <trkpt lat="45.38994" lon="5.94147">
        <ele>580.013357454</ele>
        <time>2016-09-04T13:15:24Z</time>
      </trkpt>
      <trkpt lat="45.38994" lon="5.94143">
        <ele>580.013357454</ele>
        <time>2016-09-04T13:15:34Z</time>
      </trkpt>
      <trkpt lat="45.38997" lon="5.9414">
        <ele>580.013357454</ele>
        <time>2016-09-04T13:15:39Z</time>
      </trkpt>
      <trkpt lat="45.38999" lon="5.94136">
        <ele>581.436111229</ele>
        <time>2016-09-04T13:15:49Z</time>
      </trkpt>
      <trkpt lat="45.39002" lon="5.94131">
        <ele>581.436111229</ele>
        <time>2016-09-04T13:15:54Z</time>
      </trkpt>
      <trkpt lat="45.39007" lon="5.94117">
        <ele>582.55266383</ele>
        <time>2016-09-04T13:16:09Z</time>
      </trkpt>
      <trkpt lat="45.39006" lon="5.94116">
        <ele>582.55266383</ele>
        <time>2016-09-04T13:16:14Z</time>
      </trkpt>
      <trkpt lat="45.39006" lon="5.94112">
        <ele>582.55266383</ele>
        <time>2016-09-04T13:16:24Z</time>
      </trkpt>
      <trkpt lat="45.39007" lon="5.94111">
        <ele>582.55266383</ele>
        <time>2016-09-04T13:16:29Z</time>
      </trkpt>
      <trkpt lat="45.39007" lon="5.94103">
        <ele>584.398638952</ele>
        <time>2016-09-04T13:16:39Z</time>
      </trkpt>
      <trkpt lat="45.39006" lon="5.94103">
        <ele>584.398638952</ele>
        <time>2016-09-04T13:16:45Z</time>
      </trkpt>
      <trkpt lat="45.39005" lon="5.94102">
        <ele>584.398638952</ele>
        <time>2016-09-04T13:16:54Z</time>
      </trkpt>
      <trkpt lat="45.39004" lon="5.94102">
        <ele>584.398638952</ele>
        <time>2016-09-04T13:16:59Z</time>
      </trkpt>
      <trkpt lat="45.39003" lon="5.94102">
        <ele>584.398638952</ele>
        <time>2016-09-04T13:17:09Z</time>
      </trkpt>
      <trkpt lat="45.39003" lon="5.94102">
        <ele>584.398638952</ele>
        <time>2016-09-04T13:17:14Z</time>
      </trkpt>
      <trkpt lat="45.38997" lon="5.94101">
        <ele>586.778649951</ele>
        <time>2016-09-04T13:17:24Z</time>
      </trkpt>
      <trkpt lat="45.38999" lon="5.94094">
        <ele>586.778649951</ele>
        <time>2016-09-04T13:17:29Z</time>
      </trkpt>
      <trkpt lat="45.39001" lon="5.94093">
        <ele>586.778649951</ele>
        <time>2016-09-04T13:17:41Z</time>
      </trkpt>
      <trkpt lat="45.39001" lon="5.94093">
        <ele>586.778649951</ele>
        <time>2016-09-04T13:17:44Z</time>
      </trkpt>
      <trkpt lat="45.39001" lon="5.94094">
        <ele>586.778649951</ele>
        <time>2016-09-04T13:17:54Z</time>
      </trkpt>
      <trkpt lat="45.39001" lon="5.94093">
        <ele>586.778649951</ele>
        <time>2016-09-04T13:17:59Z</time>
      </trkpt>
      <trkpt lat="45.39001" lon="5.94093">
        <ele>586.778649951</ele>
        <time>2016-09-04T13:18:14Z</time>
      </trkpt>
      <trkpt lat="45.39" lon="5.94088">
        <ele>590.230761151</ele>
        <time>2016-09-04T13:18:29Z</time>
      </trkpt>
      <trkpt lat="45.39002" lon="5.94082">
        <ele>590.230761151</ele>
        <time>2016-09-04T13:18:34Z</time>
      </trkpt>
      <trkpt lat="45.38998" lon="5.94077">
        <ele>593.088809389</ele>
        <time>2016-09-04T13:18:39Z</time>
      </trkpt>
      <trkpt lat="45.39" lon="5.94076">
        <ele>593.088809389</ele>
        <time>2016-09-04T13:18:44Z</time>
      </trkpt>
      <trkpt lat="45.39004" lon="5.94076">
        <ele>593.088809389</ele>
        <time>2016-09-04T13:18:55Z</time>
      </trkpt>
      <trkpt lat="45.39005" lon="5.94077">
        <ele>593.088809389</ele>
        <time>2016-09-04T13:19:00Z</time>
      </trkpt>
      <trkpt lat="45.39008" lon="5.94073">
        <ele>595.395972764</ele>
        <time>2016-09-04T13:19:09Z</time>
      </trkpt>
      <trkpt lat="45.39011" lon="5.94068">
        <ele>595.395972764</ele>
        <time>2016-09-04T13:19:14Z</time>
      </trkpt>
      <trkpt lat="45.39007" lon="5.9407">
        <ele>595.89679359</ele>
        <time>2016-09-04T13:19:25Z</time>
      </trkpt>
      <trkpt lat="45.39006" lon="5.94064">
        <ele>595.89679359</ele>
        <time>2016-09-04T13:19:29Z</time>
      </trkpt>
      <trkpt lat="45.39015" lon="5.94063">
        <ele>597.900638828</ele>
        <time>2016-09-04T13:19:39Z</time>
      </trkpt>
      <trkpt lat="45.39016" lon="5.94062">
        <ele>597.900638828</ele>
        <time>2016-09-04T13:19:45Z</time>
      </trkpt>
      <trkpt lat="45.39018" lon="5.94062">
        <ele>597.900638828</ele>
        <time>2016-09-04T13:19:54Z</time>
      </trkpt>
      <trkpt lat="45.39018" lon="5.94062">
        <ele>597.900638828</ele>
        <time>2016-09-04T13:19:59Z</time>
      </trkpt>
      <trkpt lat="45.39018" lon="5.94063">
        <ele>597.900638828</ele>
        <time>2016-09-04T13:20:09Z</time>
      </trkpt>
      <trkpt lat="45.39018" lon="5.94063">
        <ele>597.900638828</ele>
        <time>2016-09-04T13:20:14Z</time>
      </trkpt>
      <trkpt lat="45.39018" lon="5.94063">
        <ele>597.900638828</ele>
        <time>2016-09-04T13:20:19Z</time>
      </trkpt>
      <trkpt lat="45.39018" lon="5.94062">
        <ele>597.900638828</ele>
        <time>2016-09-04T13:20:25Z</time>
      </trkpt>
      <trkpt lat="45.39013" lon="5.94057">
        <ele>600.434366816</ele>
        <time>2016-09-04T13:20:34Z</time>
      </trkpt>
      <trkpt lat="45.39021" lon="5.94048">
        <ele>605.477100756</ele>
        <time>2016-09-04T13:45:14Z</time>
      </trkpt>
      <trkpt lat="45.39019" lon="5.9405">
        <ele>605.477100756</ele>
        <time>2016-09-04T13:45:46Z</time>
      </trkpt>
      <trkpt lat="45.39019" lon="5.9405">
        <ele>605.477100756</ele>
        <time>2016-09-04T13:45:49Z</time>
      </trkpt>
      <trkpt lat="45.39019" lon="5.9405">
        <ele>605.477100756</ele>
        <time>2016-09-04T13:45:54Z</time>
      </trkpt>
      <trkpt lat="45.39019" lon="5.9405">
        <ele>605.477100756</ele>
        <time>2016-09-04T13:46:04Z</time>
      </trkpt>
      <trkpt lat="45.39019" lon="5.9405">
        <ele>605.477100756</ele>
        <time>2016-09-04T13:46:09Z</time>
      </trkpt>
      <trkpt lat="45.39019" lon="5.9405">
        <ele>605.477100756</ele>
        <time>2016-09-04T13:46:19Z</time>
      </trkpt>
      <trkpt lat="45.39019" lon="5.9405">
        <ele>605.477100756</ele>
        <time>2016-09-04T13:46:24Z</time>
      </trkpt>
      <trkpt lat="45.39019" lon="5.9405">
        <ele>605.477100756</ele>
        <time>2016-09-04T13:46:34Z</time>
      </trkpt>
      <trkpt lat="45.39019" lon="5.9405">
        <ele>605.477100756</ele>
        <time>2016-09-04T13:46:39Z</time>
      </trkpt>
      <trkpt lat="45.39019" lon="5.9405">
        <ele>605.477100756</ele>
        <time>2016-09-04T13:46:49Z</time>
      </trkpt>
      <trkpt lat="45.39019" lon="5.9405">
        <ele>605.477100756</ele>
        <time>2016-09-04T13:47:19Z</time>
      </trkpt>
      <trkpt lat="45.39019" lon="5.9405">
        <ele>605.477100756</ele>
        <time>2016-09-04T13:47:31Z</time>
      </trkpt>
      <trkpt lat="45.39019" lon="5.9405">
        <ele>605.477100756</ele>
        <time>2016-09-04T13:47:31Z</time>
      </trkpt>
      <trkpt lat="45.39019" lon="5.9405">
        <ele>605.477100756</ele>
        <time>2016-09-04T13:47:34Z</time>
      </trkpt>
      <trkpt lat="45.39019" lon="5.9405">
        <ele>605.477100756</ele>
        <time>2016-09-04T13:47:49Z</time>
      </trkpt>
      <trkpt lat="45.39019" lon="5.9405">
        <ele>605.477100756</ele>
        <time>2016-09-04T13:47:54Z</time>
      </trkpt>
      <trkpt lat="45.39019" lon="5.9405">
        <ele>605.477100756</ele>
        <time>2016-09-04T13:48:04Z</time>
      </trkpt>
      <trkpt lat="45.39022" lon="5.94036">
        <ele>610.388033541</ele>
        <time>2016-09-04T13:48:10Z</time>
      </trkpt>
      <trkpt lat="45.39018" lon="5.94017">
        <ele>613.297193244</ele>
        <time>2016-09-04T13:48:19Z</time>
      </trkpt>
      <trkpt lat="45.3902" lon="5.94026">
        <ele>613.297193244</ele>
        <time>2016-09-04T13:48:25Z</time>
      </trkpt>
      <trkpt lat="45.3902" lon="5.94022">
        <ele>613.297193244</ele>
        <time>2016-09-04T13:48:34Z</time>
      </trkpt>
      <trkpt lat="45.39025" lon="5.94009">
        <ele>616.080427764</ele>
        <time>2016-09-04T13:48:41Z</time>
      </trkpt>
      <trkpt lat="45.39027" lon="5.93999">
        <ele>616.080427764</ele>
        <time>2016-09-04T13:48:50Z</time>
      </trkpt>
      <trkpt lat="45.39032" lon="5.93988">
        <ele>618.458581498</ele>
        <time>2016-09-04T13:48:55Z</time>
      </trkpt>
      <trkpt lat="45.39035" lon="5.93991">
        <ele>618.458581498</ele>
        <time>2016-09-04T13:49:10Z</time>
      </trkpt>
      <trkpt lat="45.39037" lon="5.93995">
        <ele>618.458581498</ele>
        <time>2016-09-04T13:49:14Z</time>
      </trkpt>
      <trkpt lat="45.39034" lon="5.94004">
        <ele>616.13901922</ele>
        <time>2016-09-04T13:49:25Z</time>
      </trkpt>
      <trkpt lat="45.39033" lon="5.94007">
        <ele>616.13901922</ele>
        <time>2016-09-04T13:49:29Z</time>
      </trkpt>
      <trkpt lat="45.39033" lon="5.94011">
        <ele>616.13901922</ele>
        <time>2016-09-04T13:49:39Z</time>
      </trkpt>
      <trkpt lat="45.39033" lon="5.94014">
        <ele>616.13901922</ele>
        <time>2016-09-04T13:49:44Z</time>
      </trkpt>
      <trkpt lat="45.39034" lon="5.94022">
        <ele>612.939678783</ele>
        <time>2016-09-04T13:49:54Z</time>
      </trkpt>
      <trkpt lat="45.39033" lon="5.94036">
        <ele>610.527002831</ele>
        <time>2016-09-04T13:49:59Z</time>
      </trkpt>
      <trkpt lat="45.39031" lon="5.94047">
        <ele>610.527002831</ele>
        <time>2016-09-04T13:50:10Z</time>
      </trkpt>
      <trkpt lat="45.39033" lon="5.94046">
        <ele>609.578071326</ele>
        <time>2016-09-04T13:50:15Z</time>
      </trkpt>
      <trkpt lat="45.39033" lon="5.94048">
        <ele>609.578071326</ele>
        <time>2016-09-04T13:50:29Z</time>
      </trkpt>
      <trkpt lat="45.39033" lon="5.94049">
        <ele>609.578071326</ele>
        <time>2016-09-04T13:50:34Z</time>
      </trkpt>
      <trkpt lat="45.39033" lon="5.94049">
        <ele>609.578071326</ele>
        <time>2016-09-04T13:50:44Z</time>
      </trkpt>
      <trkpt lat="45.39033" lon="5.94049">
        <ele>609.578071326</ele>
        <time>2016-09-04T13:50:49Z</time>
      </trkpt>
      <trkpt lat="45.39048" lon="5.94049">
        <ele>607.833785144</ele>
        <time>2016-09-04T13:51:05Z</time>
      </trkpt>
      <trkpt lat="45.39054" lon="5.94052">
        <ele>607.833785144</ele>
        <time>2016-09-04T13:51:19Z</time>
      </trkpt>
      <trkpt lat="45.39055" lon="5.94061">
        <ele>606.517668493</ele>
        <time>2016-09-04T13:51:25Z</time>
      </trkpt>
      <trkpt lat="45.39056" lon="5.94073">
        <ele>606.517668493</ele>
        <time>2016-09-04T13:51:39Z</time>
      </trkpt>
      <trkpt lat="45.39056" lon="5.94074">
        <ele>606.329673596</ele>
        <time>2016-09-04T13:51:44Z</time>
      </trkpt>
      <trkpt lat="45.39056" lon="5.94074">
        <ele>606.329673596</ele>
        <time>2016-09-04T13:51:54Z</time>
      </trkpt>
      <trkpt lat="45.39056" lon="5.94075">
        <ele>606.329673596</ele>
        <time>2016-09-04T13:52:00Z</time>
      </trkpt>
      <trkpt lat="45.39056" lon="5.94075">
        <ele>606.329673596</ele>
        <time>2016-09-04T13:52:09Z</time>
      </trkpt>
      <trkpt lat="45.39056" lon="5.94075">
        <ele>606.329673596</ele>
        <time>2016-09-04T13:52:14Z</time>
      </trkpt>
      <trkpt lat="45.39056" lon="5.94076">
        <ele>606.329673596</ele>
        <time>2016-09-04T13:52:19Z</time>
      </trkpt>
      <trkpt lat="45.39056" lon="5.94076">
        <ele>606.329673596</ele>
        <time>2016-09-04T13:52:25Z</time>
      </trkpt>
      <trkpt lat="45.39056" lon="5.94076">
        <ele>606.329673596</ele>
        <time>2016-09-04T13:52:29Z</time>
      </trkpt>
      <trkpt lat="45.39056" lon="5.94076">
        <ele>606.329673596</ele>
        <time>2016-09-04T13:52:46Z</time>
      </trkpt>
      <trkpt lat="45.39056" lon="5.94076">
        <ele>606.329673596</ele>
        <time>2016-09-04T13:52:50Z</time>
      </trkpt>
      <trkpt lat="45.39056" lon="5.94076">
        <ele>606.329673596</ele>
        <time>2016-09-04T13:52:59Z</time>
      </trkpt>
      <trkpt lat="45.39056" lon="5.94076">
        <ele>606.329673596</ele>
        <time>2016-09-04T13:53:04Z</time>
      </trkpt>
      <trkpt lat="45.39056" lon="5.94076">
        <ele>606.329673596</ele>
        <time>2016-09-04T13:53:15Z</time>
      </trkpt>
      <trkpt lat="45.39056" lon="5.94076">
        <ele>606.329673596</ele>
        <time>2016-09-04T13:53:19Z</time>
      </trkpt>
      <trkpt lat="45.39057" lon="5.94081">
        <ele>606.329673596</ele>
        <time>2016-09-04T13:53:30Z</time>
      </trkpt>
      <trkpt lat="45.39061" lon="5.94085">
        <ele>606.18565982</ele>
        <time>2016-09-04T13:53:35Z</time>
      </trkpt>
      <trkpt lat="45.39063" lon="5.94099">
        <ele>606.666045302</ele>
        <time>2016-09-04T13:53:44Z</time>
      </trkpt>
      <trkpt lat="45.39063" lon="5.941">
        <ele>606.666045302</ele>
        <time>2016-09-04T13:53:49Z</time>
      </trkpt>
      <trkpt lat="45.39064" lon="5.94109">
        <ele>606.666045302</ele>
        <time>2016-09-04T13:54:00Z</time>
      </trkpt>
      <trkpt lat="45.39065" lon="5.94115">
        <ele>607.153775875</ele>
        <time>2016-09-04T13:54:04Z</time>
      </trkpt>
      <trkpt lat="45.39067" lon="5.94117">
        <ele>607.153775875</ele>
        <time>2016-09-04T13:54:15Z</time>
      </trkpt>
      <trkpt lat="45.3907" lon="5.94125">
        <ele>607.153775875</ele>
        <time>2016-09-04T13:54:20Z</time>
      </trkpt>
      <trkpt lat="45.39072" lon="5.94125">
        <ele>607.365132211</ele>
        <time>2016-09-04T13:54:29Z</time>
      </trkpt>
      <trkpt lat="45.39076" lon="5.94125">
        <ele>607.365132211</ele>
        <time>2016-09-04T13:54:34Z</time>
      </trkpt>
      <trkpt lat="45.39078" lon="5.94123">
        <ele>607.365132211</ele>
        <time>2016-09-04T13:54:39Z</time>
      </trkpt>
      <trkpt lat="45.39078" lon="5.94129">
        <ele>607.614259113</ele>
        <time>2016-09-04T13:54:44Z</time>
      </trkpt>
      <trkpt lat="45.39079" lon="5.94131">
        <ele>607.614259113</ele>
        <time>2016-09-04T13:54:54Z</time>
      </trkpt>
      <trkpt lat="45.39079" lon="5.94132">
        <ele>607.614259113</ele>
        <time>2016-09-04T13:54:55Z</time>
      </trkpt>
      <trkpt lat="45.39079" lon="5.94132">
        <ele>607.614259113</ele>
        <time>2016-09-04T13:55:05Z</time>
      </trkpt>
      <trkpt lat="45.3908" lon="5.94134">
        <ele>607.614259113</ele>
        <time>2016-09-04T13:55:11Z</time>
      </trkpt>
      <trkpt lat="45.39084" lon="5.94149">
        <ele>610.353592003</ele>
        <time>2016-09-04T13:55:25Z</time>
      </trkpt>
      <trkpt lat="45.39085" lon="5.94154">
        <ele>610.353592003</ele>
        <time>2016-09-04T13:55:40Z</time>
      </trkpt>
      <trkpt lat="45.39085" lon="5.94155">
        <ele>610.353592003</ele>
        <time>2016-09-04T13:55:45Z</time>
      </trkpt>
      <trkpt lat="45.39085" lon="5.94155">
        <ele>610.353592003</ele>
        <time>2016-09-04T13:55:54Z</time>
      </trkpt>
      <trkpt lat="45.39085" lon="5.94155">
        <ele>610.353592003</ele>
        <time>2016-09-04T13:56:00Z</time>
      </trkpt>
      <trkpt lat="45.39085" lon="5.94155">
        <ele>610.353592003</ele>
        <time>2016-09-04T13:56:09Z</time>
      </trkpt>
      <trkpt lat="45.39085" lon="5.94155">
        <ele>610.353592003</ele>
        <time>2016-09-04T13:56:14Z</time>
      </trkpt>
      <trkpt lat="45.39087" lon="5.94155">
        <ele>610.353592003</ele>
        <time>2016-09-04T13:56:24Z</time>
      </trkpt>
      <trkpt lat="45.39093" lon="5.94155">
        <ele>612.948455556</ele>
        <time>2016-09-04T13:56:30Z</time>
      </trkpt>
      <trkpt lat="45.391" lon="5.94164">
        <ele>612.948455556</ele>
        <time>2016-09-04T13:56:40Z</time>
      </trkpt>
      <trkpt lat="45.391" lon="5.94165">
        <ele>615.263724003</ele>
        <time>2016-09-04T13:56:44Z</time>
      </trkpt>
      <trkpt lat="45.39105" lon="5.94169">
        <ele>615.263724003</ele>
        <time>2016-09-04T13:56:54Z</time>
      </trkpt>
      <trkpt lat="45.39107" lon="5.94174">
        <ele>618.183598649</ele>
        <time>2016-09-04T13:56:59Z</time>
      </trkpt>
      <trkpt lat="45.39109" lon="5.94177">
        <ele>618.183598649</ele>
        <time>2016-09-04T13:57:10Z</time>
      </trkpt>
      <trkpt lat="45.39111" lon="5.94183">
        <ele>618.183598649</ele>
        <time>2016-09-04T13:57:15Z</time>
      </trkpt>
      <trkpt lat="45.39121" lon="5.94193">
        <ele>622.093156275</ele>
        <time>2016-09-04T13:57:30Z</time>
      </trkpt>
      <trkpt lat="45.39123" lon="5.94195">
        <ele>622.093156275</ele>
        <time>2016-09-04T13:57:34Z</time>
      </trkpt>
      <trkpt lat="45.39127" lon="5.94197">
        <ele>622.093156275</ele>
        <time>2016-09-04T13:57:44Z</time>
      </trkpt>
      <trkpt lat="45.39128" lon="5.94198">
        <ele>622.093156275</ele>
        <time>2016-09-04T13:57:49Z</time>
      </trkpt>
      <trkpt lat="45.39137" lon="5.94213">
        <ele>626.049288041</ele>
        <time>2016-09-04T13:57:59Z</time>
      </trkpt>
      <trkpt lat="45.3914" lon="5.94218">
        <ele>626.049288041</ele>
        <time>2016-09-04T13:58:04Z</time>
      </trkpt>
      <trkpt lat="45.39142" lon="5.94223">
        <ele>630.186715092</ele>
        <time>2016-09-04T13:58:15Z</time>
      </trkpt>
      <trkpt lat="45.39146" lon="5.94228">
        <ele>630.186715092</ele>
        <time>2016-09-04T13:58:20Z</time>
      </trkpt>
      <trkpt lat="45.39147" lon="5.94233">
        <ele>634.053234679</ele>
        <time>2016-09-04T13:58:29Z</time>
      </trkpt>
      <trkpt lat="45.39148" lon="5.9424">
        <ele>634.053234679</ele>
        <time>2016-09-04T13:58:34Z</time>
      </trkpt>
      <trkpt lat="45.39151" lon="5.94248">
        <ele>637.230571373</ele>
        <time>2016-09-04T13:58:44Z</time>
      </trkpt>
      <trkpt lat="45.39154" lon="5.94253">
        <ele>637.230571373</ele>
        <time>2016-09-04T13:58:49Z</time>
      </trkpt>
      <trkpt lat="45.39154" lon="5.94253">
        <ele>637.230571373</ele>
        <time>2016-09-04T13:58:54Z</time>
      </trkpt>
      <trkpt lat="45.39158" lon="5.94262">
        <ele>639.909522339</ele>
        <time>2016-09-04T13:59:06Z</time>
      </trkpt>
      <trkpt lat="45.3916" lon="5.94264">
        <ele>639.909522339</ele>
        <time>2016-09-04T13:59:09Z</time>
      </trkpt>
      <trkpt lat="45.39165" lon="5.94272">
        <ele>641.547692657</ele>
        <time>2016-09-04T13:59:20Z</time>
      </trkpt>
      <trkpt lat="45.39168" lon="5.94274">
        <ele>641.547692657</ele>
        <time>2016-09-04T13:59:24Z</time>
      </trkpt>
      <trkpt lat="45.3917" lon="5.94276">
        <ele>641.547692657</ele>
        <time>2016-09-04T13:59:34Z</time>
      </trkpt>
      <trkpt lat="45.3917" lon="5.94275">
        <ele>641.547692657</ele>
        <time>2016-09-04T13:59:39Z</time>
      </trkpt>
      <trkpt lat="45.3917" lon="5.94275">
        <ele>641.547692657</ele>
        <time>2016-09-04T13:59:44Z</time>
      </trkpt>
      <trkpt lat="45.3917" lon="5.94275">
        <ele>641.547692657</ele>
        <time>2016-09-04T13:59:49Z</time>
      </trkpt>
      <trkpt lat="45.3917" lon="5.94277">
        <ele>641.547692657</ele>
        <time>2016-09-04T13:59:59Z</time>
      </trkpt>
      <trkpt lat="45.39172" lon="5.94281">
        <ele>642.654219186</ele>
        <time>2016-09-04T14:00:04Z</time>
      </trkpt>
      <trkpt lat="45.39175" lon="5.94283">
        <ele>642.654219186</ele>
        <time>2016-09-04T14:00:14Z</time>
      </trkpt>
      <trkpt lat="45.39176" lon="5.94284">
        <ele>642.654219186</ele>
        <time>2016-09-04T14:00:20Z</time>
      </trkpt>
      <trkpt lat="45.3918" lon="5.94292">
        <ele>643.414097982</ele>
        <time>2016-09-04T14:00:29Z</time>
      </trkpt>
      <trkpt lat="45.39181" lon="5.94294">
        <ele>643.414097982</ele>
        <time>2016-09-04T14:00:35Z</time>
      </trkpt>
      <trkpt lat="45.39181" lon="5.94303">
        <ele>643.414097982</ele>
        <time>2016-09-04T14:00:44Z</time>
      </trkpt>
      <trkpt lat="45.3918" lon="5.94307">
        <ele>644.864364968</ele>
        <time>2016-09-04T14:00:49Z</time>
      </trkpt>
      <trkpt lat="45.39173" lon="5.94322">
        <ele>645.802255492</ele>
        <time>2016-09-04T14:01:04Z</time>
      </trkpt>
      <trkpt lat="45.39172" lon="5.94327">
        <ele>645.802255492</ele>
        <time>2016-09-04T14:01:15Z</time>
      </trkpt>
      <trkpt lat="45.39172" lon="5.94327">
        <ele>645.802255492</ele>
        <time>2016-09-04T14:01:19Z</time>
      </trkpt>
      <trkpt lat="45.39165" lon="5.94333">
        <ele>645.979443055</ele>
        <time>2016-09-04T14:01:34Z</time>
      </trkpt>
      <trkpt lat="45.39162" lon="5.94335">
        <ele>645.979443055</ele>
        <time>2016-09-04T14:01:39Z</time>
      </trkpt>
      <trkpt lat="45.39161" lon="5.94338">
        <ele>645.979443055</ele>
        <time>2016-09-04T14:01:49Z</time>
      </trkpt>
      <trkpt lat="45.39158" lon="5.94343">
        <ele>645.167947476</ele>
        <time>2016-09-04T14:01:55Z</time>
      </trkpt>
      <trkpt lat="45.39153" lon="5.94349">
        <ele>645.167947476</ele>
        <time>2016-09-04T14:02:05Z</time>
      </trkpt>
      <trkpt lat="45.3915" lon="5.94351">
        <ele>644.312159118</ele>
        <time>2016-09-04T14:02:09Z</time>
      </trkpt>
      <trkpt lat="45.39151" lon="5.94356">
        <ele>644.312159118</ele>
        <time>2016-09-04T14:02:20Z</time>
      </trkpt>
      <trkpt lat="45.39145" lon="5.9436">
        <ele>642.413715362</ele>
        <time>2016-09-04T14:02:25Z</time>
      </trkpt>
      <trkpt lat="45.39139" lon="5.94364">
        <ele>642.413715362</ele>
        <time>2016-09-04T14:02:35Z</time>
      </trkpt>
      <trkpt lat="45.39135" lon="5.94365">
        <ele>639.991553946</ele>
        <time>2016-09-04T14:02:40Z</time>
      </trkpt>
      <trkpt lat="45.39127" lon="5.94372">
        <ele>638.536642455</ele>
        <time>2016-09-04T14:02:50Z</time>
      </trkpt>
      <trkpt lat="45.39121" lon="5.94375">
        <ele>638.536642455</ele>
        <time>2016-09-04T14:02:55Z</time>
      </trkpt>
      <trkpt lat="45.39116" lon="5.94385">
        <ele>637.986480122</ele>
        <time>2016-09-04T14:03:05Z</time>
      </trkpt>
      <trkpt lat="45.39116" lon="5.94386">
        <ele>637.986480122</ele>
        <time>2016-09-04T14:03:09Z</time>
      </trkpt>
      <trkpt lat="45.39113" lon="5.94393">
        <ele>637.986480122</ele>
        <time>2016-09-04T14:03:20Z</time>
      </trkpt>
      <trkpt lat="45.39112" lon="5.94398">
        <ele>637.271706968</ele>
        <time>2016-09-04T14:03:25Z</time>
      </trkpt>
      <trkpt lat="45.39107" lon="5.94411">
        <ele>636.122388911</ele>
        <time>2016-09-04T14:03:40Z</time>
      </trkpt>
      <trkpt lat="45.39106" lon="5.94415">
        <ele>636.122388911</ele>
        <time>2016-09-04T14:03:45Z</time>
      </trkpt>
      <trkpt lat="45.39102" lon="5.94424">
        <ele>634.433594054</ele>
        <time>2016-09-04T14:03:56Z</time>
      </trkpt>
      <trkpt lat="45.39102" lon="5.94428">
        <ele>634.433594054</ele>
        <time>2016-09-04T14:03:59Z</time>
      </trkpt>
      <trkpt lat="45.39097" lon="5.94431">
        <ele>634.433594054</ele>
        <time>2016-09-04T14:04:09Z</time>
      </trkpt>
      <trkpt lat="45.39095" lon="5.94432">
        <ele>631.965332275</ele>
        <time>2016-09-04T14:04:15Z</time>
      </trkpt>
      <trkpt lat="45.39096" lon="5.94438">
        <ele>631.965332275</ele>
        <time>2016-09-04T14:04:24Z</time>
      </trkpt>
      <trkpt lat="45.39096" lon="5.94439">
        <ele>631.965332275</ele>
        <time>2016-09-04T14:04:29Z</time>
      </trkpt>
      <trkpt lat="45.39095" lon="5.9444">
        <ele>631.965332275</ele>
        <time>2016-09-04T14:04:39Z</time>
      </trkpt>
      <trkpt lat="45.39095" lon="5.9444">
        <ele>631.965332275</ele>
        <time>2016-09-04T14:04:44Z</time>
      </trkpt>
      <trkpt lat="45.39095" lon="5.9444">
        <ele>631.965332275</ele>
        <time>2016-09-04T14:04:59Z</time>
      </trkpt>
      <trkpt lat="45.39091" lon="5.9445">
        <ele>630.658918393</ele>
        <time>2016-09-04T14:05:14Z</time>
      </trkpt>
      <trkpt lat="45.39088" lon="5.94451">
        <ele>630.658918393</ele>
        <time>2016-09-04T14:05:19Z</time>
      </trkpt>
      <trkpt lat="45.39085" lon="5.94457">
        <ele>630.658918393</ele>
        <time>2016-09-04T14:05:30Z</time>
      </trkpt>
      <trkpt lat="45.39084" lon="5.94462">
        <ele>628.995049577</ele>
        <time>2016-09-04T14:05:34Z</time>
      </trkpt>
      <trkpt lat="45.39084" lon="5.94462">
        <ele>628.995049577</ele>
        <time>2016-09-04T14:05:45Z</time>
      </trkpt>
      <trkpt lat="45.39081" lon="5.94469">
        <ele>628.995049577</ele>
        <time>2016-09-04T14:05:49Z</time>
      </trkpt>
      <trkpt lat="45.39078" lon="5.94478">
        <ele>626.575607504</ele>
        <time>2016-09-04T14:05:59Z</time>
      </trkpt>
      <trkpt lat="45.39076" lon="5.94484">
        <ele>626.575607504</ele>
        <time>2016-09-04T14:06:05Z</time>
      </trkpt>
      <trkpt lat="45.39072" lon="5.94492">
        <ele>623.898290537</ele>
        <time>2016-09-04T14:06:15Z</time>
      </trkpt>
      <trkpt lat="45.39068" lon="5.94496">
        <ele>623.898290537</ele>
        <time>2016-09-04T14:06:20Z</time>
      </trkpt>
      <trkpt lat="45.39061" lon="5.94508">
        <ele>621.280621646</ele>
        <time>2016-09-04T14:06:30Z</time>
      </trkpt>
      <trkpt lat="45.39062" lon="5.9451">
        <ele>621.280621646</ele>
        <time>2016-09-04T14:06:34Z</time>
      </trkpt>
      <trkpt lat="45.3906" lon="5.94512">
        <ele>621.280621646</ele>
        <time>2016-09-04T14:06:39Z</time>
      </trkpt>
      <trkpt lat="45.39059" lon="5.94513">
        <ele>621.280621646</ele>
        <time>2016-09-04T14:06:44Z</time>
      </trkpt>
      <trkpt lat="45.39058" lon="5.94516">
        <ele>621.280621646</ele>
        <time>2016-09-04T14:06:49Z</time>
      </trkpt>
      <trkpt lat="45.39055" lon="5.94524">
        <ele>617.142944172</ele>
        <time>2016-09-04T14:06:55Z</time>
      </trkpt>
      <trkpt lat="45.39052" lon="5.94533">
        <ele>617.142944172</ele>
        <time>2016-09-04T14:07:04Z</time>
      </trkpt>
      <trkpt lat="45.39049" lon="5.9454">
        <ele>612.907872571</ele>
        <time>2016-09-04T14:07:09Z</time>
      </trkpt>
      <trkpt lat="45.39046" lon="5.94552">
        <ele>612.907872571</ele>
        <time>2016-09-04T14:07:19Z</time>
      </trkpt>
      <trkpt lat="45.39042" lon="5.94559">
        <ele>608.596513244</ele>
        <time>2016-09-04T14:07:24Z</time>
      </trkpt>
      <trkpt lat="45.39037" lon="5.94578">
        <ele>605.237121252</ele>
        <time>2016-09-04T14:07:34Z</time>
      </trkpt>
      <trkpt lat="45.39036" lon="5.94583">
        <ele>605.237121252</ele>
        <time>2016-09-04T14:07:39Z</time>
      </trkpt>
      <trkpt lat="45.39034" lon="5.94601">
        <ele>601.761879572</ele>
        <time>2016-09-04T14:07:49Z</time>
      </trkpt>
      <trkpt lat="45.39032" lon="5.94608">
        <ele>601.761879572</ele>
        <time>2016-09-04T14:07:55Z</time>
      </trkpt>
      <trkpt lat="45.39029" lon="5.9462">
        <ele>598.334304548</ele>
        <time>2016-09-04T14:08:09Z</time>
      </trkpt>
      <trkpt lat="45.39025" lon="5.94645">
        <ele>595.393658599</ele>
        <time>2016-09-04T14:08:19Z</time>
      </trkpt>
      <trkpt lat="45.39022" lon="5.94654">
        <ele>595.393658599</ele>
        <time>2016-09-04T14:08:24Z</time>
      </trkpt>
      <trkpt lat="45.39019" lon="5.94665">
        <ele>592.62467898</ele>
        <time>2016-09-04T14:08:34Z</time>
      </trkpt>
      <trkpt lat="45.39015" lon="5.94673">
        <ele>592.62467898</ele>
        <time>2016-09-04T14:08:39Z</time>
      </trkpt>
      <trkpt lat="45.39008" lon="5.94691">
        <ele>589.446220041</ele>
        <time>2016-09-04T14:08:54Z</time>
      </trkpt>
      <trkpt lat="45.39009" lon="5.94697">
        <ele>589.446220041</ele>
        <time>2016-09-04T14:08:59Z</time>
      </trkpt>
      <trkpt lat="45.39004" lon="5.94712">
        <ele>586.905860859</ele>
        <time>2016-09-04T14:09:09Z</time>
      </trkpt>
      <trkpt lat="45.39004" lon="5.94714">
        <ele>586.905860859</ele>
        <time>2016-09-04T14:09:14Z</time>
      </trkpt>
      <trkpt lat="45.39003" lon="5.94718">
        <ele>586.905860859</ele>
        <time>2016-09-04T14:09:24Z</time>
      </trkpt>
      <trkpt lat="45.39003" lon="5.94718">
        <ele>586.905860859</ele>
        <time>2016-09-04T14:09:29Z</time>
      </trkpt>
      <trkpt lat="45.39003" lon="5.94727">
        <ele>584.09865502</ele>
        <time>2016-09-04T14:09:39Z</time>
      </trkpt>
      <trkpt lat="45.39002" lon="5.94736">
        <ele>584.09865502</ele>
        <time>2016-09-04T14:09:44Z</time>
      </trkpt>
      <trkpt lat="45.39" lon="5.94751">
        <ele>580.907104408</ele>
        <time>2016-09-04T14:09:54Z</time>
      </trkpt>
      <trkpt lat="45.38998" lon="5.94763">
        <ele>580.907104408</ele>
        <time>2016-09-04T14:09:59Z</time>
      </trkpt>
      <trkpt lat="45.38993" lon="5.94782">
        <ele>577.367201023</ele>
        <time>2016-09-04T14:10:09Z</time>
      </trkpt>
      <trkpt lat="45.38992" lon="5.94791">
        <ele>577.367201023</ele>
        <time>2016-09-04T14:10:14Z</time>
      </trkpt>
      <trkpt lat="45.38993" lon="5.94801">
        <ele>573.945275563</ele>
        <time>2016-09-04T14:10:24Z</time>
      </trkpt>
      <trkpt lat="45.38993" lon="5.94809">
        <ele>573.945275563</ele>
        <time>2016-09-04T14:10:29Z</time>
      </trkpt>
      <trkpt lat="45.38991" lon="5.94826">
        <ele>571.216857288</ele>
        <time>2016-09-04T14:10:39Z</time>
      </trkpt>
      <trkpt lat="45.38991" lon="5.94835">
        <ele>571.216857288</ele>
        <time>2016-09-04T14:10:44Z</time>
      </trkpt>
      <trkpt lat="45.38993" lon="5.94854">
        <ele>568.704152417</ele>
        <time>2016-09-04T14:10:55Z</time>
      </trkpt>
      <trkpt lat="45.38993" lon="5.94853">
        <ele>568.704152417</ele>
        <time>2016-09-04T14:10:59Z</time>
      </trkpt>
      <trkpt lat="45.38993" lon="5.94853">
        <ele>568.704152417</ele>
        <time>2016-09-04T14:11:04Z</time>
      </trkpt>
      <trkpt lat="45.38993" lon="5.94853">
        <ele>568.704152417</ele>
        <time>2016-09-04T14:11:09Z</time>
      </trkpt>
      <trkpt lat="45.38992" lon="5.94856">
        <ele>568.704152417</ele>
        <time>2016-09-04T14:11:14Z</time>
      </trkpt>
      <trkpt lat="45.38996" lon="5.94871">
        <ele>565.963544861</ele>
        <time>2016-09-04T14:11:25Z</time>
      </trkpt>
      <trkpt lat="45.38997" lon="5.94877">
        <ele>565.963544861</ele>
        <time>2016-09-04T14:11:29Z</time>
      </trkpt>
      <trkpt lat="45.39002" lon="5.94895">
        <ele>564.313673812</ele>
        <time>2016-09-04T14:11:39Z</time>
      </trkpt>
      <trkpt lat="45.39003" lon="5.94895">
        <ele>564.313673812</ele>
        <time>2016-09-04T14:11:44Z</time>
      </trkpt>
      <trkpt lat="45.3901" lon="5.94901">
        <ele>562.667179975</ele>
        <time>2016-09-04T14:11:54Z</time>
      </trkpt>
      <trkpt lat="45.39013" lon="5.94901">
        <ele>562.667179975</ele>
        <time>2016-09-04T14:11:59Z</time>
      </trkpt>
      <trkpt lat="45.39019" lon="5.94912">
        <ele>560.73684757</ele>
        <time>2016-09-04T14:12:14Z</time>
      </trkpt>
      <trkpt lat="45.39023" lon="5.94917">
        <ele>560.73684757</ele>
        <time>2016-09-04T14:12:19Z</time>
      </trkpt>
      <trkpt lat="45.39029" lon="5.94927">
        <ele>559.265870275</ele>
        <time>2016-09-04T14:12:30Z</time>
      </trkpt>
      <trkpt lat="45.39029" lon="5.94934">
        <ele>559.265870275</ele>
        <time>2016-09-04T14:12:34Z</time>
      </trkpt>
      <trkpt lat="45.39035" lon="5.94942">
        <ele>557.06786552</ele>
        <time>2016-09-04T14:12:44Z</time>
      </trkpt>
      <trkpt lat="45.39038" lon="5.94948">
        <ele>557.06786552</ele>
        <time>2016-09-04T14:12:49Z</time>
      </trkpt>
      <trkpt lat="45.39041" lon="5.94964">
        <ele>554.918853364</ele>
        <time>2016-09-04T14:13:00Z</time>
      </trkpt>
      <trkpt lat="45.39043" lon="5.94971">
        <ele>554.918853364</ele>
        <time>2016-09-04T14:13:04Z</time>
      </trkpt>
      <trkpt lat="45.3905" lon="5.94978">
        <ele>552.096378073</ele>
        <time>2016-09-04T14:13:14Z</time>
      </trkpt>
      <trkpt lat="45.39053" lon="5.94988">
        <ele>552.096378073</ele>
        <time>2016-09-04T14:13:19Z</time>
      </trkpt>
      <trkpt lat="45.3906" lon="5.95">
        <ele>549.806180191</ele>
        <time>2016-09-04T14:13:29Z</time>
      </trkpt>
      <trkpt lat="45.39062" lon="5.95009">
        <ele>549.806180191</ele>
        <time>2016-09-04T14:13:35Z</time>
      </trkpt>
      <trkpt lat="45.39067" lon="5.95021">
        <ele>548.15495724</ele>
        <time>2016-09-04T14:13:44Z</time>
      </trkpt>
      <trkpt lat="45.39068" lon="5.95027">
        <ele>548.15495724</ele>
        <time>2016-09-04T14:13:49Z</time>
      </trkpt>
      <trkpt lat="45.39069" lon="5.95038">
        <ele>546.230810118</ele>
        <time>2016-09-04T14:13:59Z</time>
      </trkpt>
      <trkpt lat="45.39069" lon="5.9504">
        <ele>546.230810118</ele>
        <time>2016-09-04T14:14:04Z</time>
      </trkpt>
      <trkpt lat="45.39069" lon="5.95042">
        <ele>546.230810118</ele>
        <time>2016-09-04T14:14:14Z</time>
      </trkpt>
      <trkpt lat="45.39069" lon="5.95045">
        <ele>546.230810118</ele>
        <time>2016-09-04T14:14:19Z</time>
      </trkpt>
      <trkpt lat="45.3907" lon="5.95063">
        <ele>544.054083024</ele>
        <time>2016-09-04T14:14:29Z</time>
      </trkpt>
      <trkpt lat="45.39069" lon="5.95068">
        <ele>544.054083024</ele>
        <time>2016-09-04T14:14:34Z</time>
      </trkpt>
      <trkpt lat="45.39068" lon="5.95074">
        <ele>544.054083024</ele>
        <time>2016-09-04T14:14:39Z</time>
      </trkpt>
      <trkpt lat="45.39068" lon="5.95087">
        <ele>542.076503046</ele>
        <time>2016-09-04T14:14:49Z</time>
      </trkpt>
      <trkpt lat="45.39066" lon="5.95094">
        <ele>542.076503046</ele>
        <time>2016-09-04T14:14:54Z</time>
      </trkpt>
      <trkpt lat="45.39063" lon="5.95109">
        <ele>539.851234703</ele>
        <time>2016-09-04T14:15:04Z</time>
      </trkpt>
      <trkpt lat="45.39061" lon="5.95113">
        <ele>539.851234703</ele>
        <time>2016-09-04T14:15:09Z</time>
      </trkpt>
      <trkpt lat="45.39059" lon="5.95121">
        <ele>537.253040249</ele>
        <time>2016-09-04T14:15:19Z</time>
      </trkpt>
      <trkpt lat="45.39059" lon="5.95129">
        <ele>537.253040249</ele>
        <time>2016-09-04T14:15:24Z</time>
      </trkpt>
      <trkpt lat="45.39061" lon="5.95139">
        <ele>533.734457486</ele>
        <time>2016-09-04T14:15:34Z</time>
      </trkpt>
      <trkpt lat="45.39058" lon="5.95146">
        <ele>533.734457486</ele>
        <time>2016-09-04T14:15:39Z</time>
      </trkpt>
      <trkpt lat="45.39054" lon="5.95156">
        <ele>530.231801546</ele>
        <time>2016-09-04T14:15:49Z</time>
      </trkpt>
      <trkpt lat="45.39054" lon="5.95157">
        <ele>530.231801546</ele>
        <time>2016-09-04T14:15:54Z</time>
      </trkpt>
      <trkpt lat="45.3905" lon="5.95167">
        <ele>530.231801546</ele>
        <time>2016-09-04T14:16:04Z</time>
      </trkpt>
      <trkpt lat="45.39047" lon="5.95177">
        <ele>527.180097951</ele>
        <time>2016-09-04T14:16:09Z</time>
      </trkpt>
      <trkpt lat="45.39043" lon="5.95199">
        <ele>524.836911086</ele>
        <time>2016-09-04T14:16:20Z</time>
      </trkpt>
      <trkpt lat="45.39043" lon="5.95208">
        <ele>524.836911086</ele>
        <time>2016-09-04T14:16:25Z</time>
      </trkpt>
      <trkpt lat="45.39046" lon="5.95223">
        <ele>522.28588225</ele>
        <time>2016-09-04T14:16:35Z</time>
      </trkpt>
      <trkpt lat="45.39045" lon="5.95228">
        <ele>522.28588225</ele>
        <time>2016-09-04T14:16:39Z</time>
      </trkpt>
      <trkpt lat="45.39049" lon="5.95245">
        <ele>520.263654021</ele>
        <time>2016-09-04T14:16:50Z</time>
      </trkpt>
      <trkpt lat="45.39051" lon="5.95254">
        <ele>520.263654021</ele>
        <time>2016-09-04T14:16:55Z</time>
      </trkpt>
      <trkpt lat="45.39061" lon="5.95271">
        <ele>518.442382582</ele>
        <time>2016-09-04T14:17:09Z</time>
      </trkpt>
      <trkpt lat="45.39063" lon="5.95278">
        <ele>518.442382582</ele>
        <time>2016-09-04T14:17:14Z</time>
      </trkpt>
      <trkpt lat="45.39069" lon="5.95291">
        <ele>516.661753364</ele>
        <time>2016-09-04T14:17:25Z</time>
      </trkpt>
      <trkpt lat="45.39071" lon="5.95301">
        <ele>516.661753364</ele>
        <time>2016-09-04T14:17:29Z</time>
      </trkpt>
      <trkpt lat="45.39078" lon="5.95312">
        <ele>515.061246479</ele>
        <time>2016-09-04T14:17:39Z</time>
      </trkpt>
      <trkpt lat="45.39081" lon="5.95317">
        <ele>515.061246479</ele>
        <time>2016-09-04T14:17:44Z</time>
      </trkpt>
      <trkpt lat="45.39086" lon="5.95329">
        <ele>513.769512907</ele>
        <time>2016-09-04T14:17:54Z</time>
      </trkpt>
      <trkpt lat="45.39089" lon="5.95335">
        <ele>513.769512907</ele>
        <time>2016-09-04T14:18:00Z</time>
      </trkpt>
      <trkpt lat="45.39094" lon="5.9535">
        <ele>512.904822797</ele>
        <time>2016-09-04T14:18:10Z</time>
      </trkpt>
      <trkpt lat="45.39095" lon="5.95355">
        <ele>512.904822797</ele>
        <time>2016-09-04T14:18:14Z</time>
      </trkpt>
      <trkpt lat="45.39097" lon="5.95365">
        <ele>511.710843145</ele>
        <time>2016-09-04T14:18:24Z</time>
      </trkpt>
      <trkpt lat="45.391" lon="5.95368">
        <ele>511.710843145</ele>
        <time>2016-09-04T14:18:29Z</time>
      </trkpt>
      <trkpt lat="45.39105" lon="5.95387">
        <ele>510.640578231</ele>
        <time>2016-09-04T14:18:40Z</time>
      </trkpt>
      <trkpt lat="45.39108" lon="5.95394">
        <ele>510.640578231</ele>
        <time>2016-09-04T14:18:44Z</time>
      </trkpt>
      <trkpt lat="45.3911" lon="5.95397">
        <ele>510.640578231</ele>
        <time>2016-09-04T14:18:49Z</time>
      </trkpt>
      <trkpt lat="45.39115" lon="5.95409">
        <ele>508.960496115</ele>
        <time>2016-09-04T14:18:59Z</time>
      </trkpt>
      <trkpt lat="45.39118" lon="5.95416">
        <ele>508.960496115</ele>
        <time>2016-09-04T14:19:04Z</time>
      </trkpt>
      <trkpt lat="45.39123" lon="5.95424">
        <ele>507.577873004</ele>
        <time>2016-09-04T14:19:14Z</time>
      </trkpt>
      <trkpt lat="45.39126" lon="5.95431">
        <ele>507.577873004</ele>
        <time>2016-09-04T14:19:19Z</time>
      </trkpt>
      <trkpt lat="45.39126" lon="5.95438">
        <ele>506.323724663</ele>
        <time>2016-09-04T14:19:29Z</time>
      </trkpt>
      <trkpt lat="45.39128" lon="5.95438">
        <ele>506.323724663</ele>
        <time>2016-09-04T14:19:34Z</time>
      </trkpt>
      <trkpt lat="45.39133" lon="5.95446">
        <ele>504.752906573</ele>
        <time>2016-09-04T14:19:44Z</time>
      </trkpt>
      <trkpt lat="45.39135" lon="5.95449">
        <ele>504.752906573</ele>
        <time>2016-09-04T14:19:49Z</time>
      </trkpt>
      <trkpt lat="45.3914" lon="5.9546">
        <ele>503.030323726</ele>
        <time>2016-09-04T14:19:59Z</time>
      </trkpt>
      <trkpt lat="45.39141" lon="5.9546">
        <ele>503.030323726</ele>
        <time>2016-09-04T14:20:05Z</time>
      </trkpt>
      <trkpt lat="45.39146" lon="5.95467">
        <ele>503.030323726</ele>
        <time>2016-09-04T14:20:14Z</time>
      </trkpt>
      <trkpt lat="45.39148" lon="5.95475">
        <ele>501.597438938</ele>
        <time>2016-09-04T14:20:19Z</time>
      </trkpt>
      <trkpt lat="45.39154" lon="5.95488">
        <ele>500.574280827</ele>
        <time>2016-09-04T14:20:29Z</time>
      </trkpt>
      <trkpt lat="45.39159" lon="5.95495">
        <ele>500.574280827</ele>
        <time>2016-09-04T14:20:35Z</time>
      </trkpt>
      <trkpt lat="45.39164" lon="5.95507">
        <ele>499.926837947</ele>
        <time>2016-09-04T14:20:44Z</time>
      </trkpt>
      <trkpt lat="45.39168" lon="5.95509">
        <ele>499.926837947</ele>
        <time>2016-09-04T14:20:49Z</time>
      </trkpt>
      <trkpt lat="45.39174" lon="5.95521">
        <ele>499.478478587</ele>
        <time>2016-09-04T14:21:00Z</time>
      </trkpt>
      <trkpt lat="45.39178" lon="5.95529">
        <ele>499.478478587</ele>
        <time>2016-09-04T14:21:04Z</time>
      </trkpt>
      <trkpt lat="45.39182" lon="5.95536">
        <ele>498.632710203</ele>
        <time>2016-09-04T14:21:14Z</time>
      </trkpt>
      <trkpt lat="45.39187" lon="5.95544">
        <ele>498.632710203</ele>
        <time>2016-09-04T14:21:19Z</time>
      </trkpt>
      <trkpt lat="45.39187" lon="5.95545">
        <ele>498.632710203</ele>
        <time>2016-09-04T14:21:30Z</time>
      </trkpt>
      <trkpt lat="45.39187" lon="5.95546">
        <ele>498.632710203</ele>
        <time>2016-09-04T14:21:34Z</time>
      </trkpt>
      <trkpt lat="45.39179" lon="5.95549">
        <ele>497.126259921</ele>
        <time>2016-09-04T14:21:49Z</time>
      </trkpt>
      <trkpt lat="45.39172" lon="5.95545">
        <ele>497.126259921</ele>
        <time>2016-09-04T14:22:04Z</time>
      </trkpt>
      <trkpt lat="45.39169" lon="5.95541">
        <ele>495.14945227</ele>
        <time>2016-09-04T14:22:10Z</time>
      </trkpt>
      <trkpt lat="45.39165" lon="5.95537">
        <ele>495.14945227</ele>
        <time>2016-09-04T14:22:20Z</time>
      </trkpt>
      <trkpt lat="45.39163" lon="5.95537">
        <ele>495.14945227</ele>
        <time>2016-09-04T14:22:24Z</time>
      </trkpt>
      <trkpt lat="45.39155" lon="5.95542">
        <ele>490.141906271</ele>
        <time>2016-09-04T14:22:34Z</time>
      </trkpt>
      <trkpt lat="45.39151" lon="5.95544">
        <ele>490.141906271</ele>
        <time>2016-09-04T14:22:39Z</time>
      </trkpt>
      <trkpt lat="45.39143" lon="5.95546">
        <ele>488.242450435</ele>
        <time>2016-09-04T14:22:54Z</time>
      </trkpt>
      <trkpt lat="45.39141" lon="5.95544">
        <ele>488.242450435</ele>
        <time>2016-09-04T14:22:59Z</time>
      </trkpt>
      <trkpt lat="45.39135" lon="5.95539">
        <ele>486.771849304</ele>
        <time>2016-09-04T14:23:09Z</time>
      </trkpt>
      <trkpt lat="45.39135" lon="5.95537">
        <ele>486.771849304</ele>
        <time>2016-09-04T14:23:14Z</time>
      </trkpt>
      <trkpt lat="45.39129" lon="5.95533">
        <ele>486.771849304</ele>
        <time>2016-09-04T14:23:24Z</time>
      </trkpt>
      <trkpt lat="45.39126" lon="5.95535">
        <ele>484.975864149</ele>
        <time>2016-09-04T14:23:29Z</time>
      </trkpt>
      <trkpt lat="45.39119" lon="5.95534">
        <ele>484.975864149</ele>
        <time>2016-09-04T14:23:39Z</time>
      </trkpt>
      <trkpt lat="45.39113" lon="5.95538">
        <ele>483.165399905</ele>
        <time>2016-09-04T14:23:44Z</time>
      </trkpt>
      <trkpt lat="45.39109" lon="5.95535">
        <ele>483.165399905</ele>
        <time>2016-09-04T14:23:54Z</time>
      </trkpt>
      <trkpt lat="45.39107" lon="5.95536">
        <ele>483.165399905</ele>
        <time>2016-09-04T14:23:59Z</time>
      </trkpt>
      <trkpt lat="45.39103" lon="5.95538">
        <ele>480.331608308</ele>
        <time>2016-09-04T14:24:09Z</time>
      </trkpt>
      <trkpt lat="45.39101" lon="5.95537">
        <ele>480.331608308</ele>
        <time>2016-09-04T14:24:14Z</time>
      </trkpt>
      <trkpt lat="45.39094" lon="5.95542">
        <ele>477.271997708</ele>
        <time>2016-09-04T14:24:24Z</time>
      </trkpt>
      <trkpt lat="45.39092" lon="5.95542">
        <ele>477.271997708</ele>
        <time>2016-09-04T14:24:29Z</time>
      </trkpt>
      <trkpt lat="45.39086" lon="5.95538">
        <ele>477.271997708</ele>
        <time>2016-09-04T14:24:39Z</time>
      </trkpt>
      <trkpt lat="45.39082" lon="5.95539">
        <ele>473.573271609</ele>
        <time>2016-09-04T14:24:44Z</time>
      </trkpt>
      <trkpt lat="45.39076" lon="5.95535">
        <ele>473.573271609</ele>
        <time>2016-09-04T14:24:54Z</time>
      </trkpt>
      <trkpt lat="45.39072" lon="5.95534">
        <ele>469.863090649</ele>
        <time>2016-09-04T14:24:59Z</time>
      </trkpt>
      <trkpt lat="45.39067" lon="5.95527">
        <ele>469.863090649</ele>
        <time>2016-09-04T14:25:09Z</time>
      </trkpt>
      <trkpt lat="45.39065" lon="5.95526">
        <ele>465.858385595</ele>
        <time>2016-09-04T14:25:14Z</time>
      </trkpt>
      <trkpt lat="45.39057" lon="5.95527">
        <ele>465.858385595</ele>
        <time>2016-09-04T14:25:29Z</time>
      </trkpt>
      <trkpt lat="45.39054" lon="5.95527">
        <ele>461.874150819</ele>
        <time>2016-09-04T14:25:34Z</time>
      </trkpt>
      <trkpt lat="45.39048" lon="5.95529">
        <ele>461.874150819</ele>
        <time>2016-09-04T14:25:44Z</time>
      </trkpt>
      <trkpt lat="45.39044" lon="5.95529">
        <ele>457.913945906</ele>
        <time>2016-09-04T14:25:49Z</time>
      </trkpt>
      <trkpt lat="45.39034" lon="5.95529">
        <ele>454.26919499</ele>
        <time>2016-09-04T14:25:59Z</time>
      </trkpt>
      <trkpt lat="45.3903" lon="5.95529">
        <ele>454.26919499</ele>
        <time>2016-09-04T14:26:04Z</time>
      </trkpt>
      <trkpt lat="45.39022" lon="5.95524">
        <ele>451.353100994</ele>
        <time>2016-09-04T14:26:14Z</time>
      </trkpt>
      <trkpt lat="45.39018" lon="5.95522">
        <ele>451.353100994</ele>
        <time>2016-09-04T14:26:19Z</time>
      </trkpt>
      <trkpt lat="45.39011" lon="5.95516">
        <ele>448.537643457</ele>
        <time>2016-09-04T14:26:29Z</time>
      </trkpt>
      <trkpt lat="45.39008" lon="5.95513">
        <ele>448.537643457</ele>
        <time>2016-09-04T14:26:34Z</time>
      </trkpt>
      <trkpt lat="45.39" lon="5.95508">
        <ele>445.672934715</ele>
        <time>2016-09-04T14:26:44Z</time>
      </trkpt>
      <trkpt lat="45.38994" lon="5.95505">
        <ele>445.672934715</ele>
        <time>2016-09-04T14:26:49Z</time>
      </trkpt>
      <trkpt lat="45.38988" lon="5.95498">
        <ele>442.62018082</ele>
        <time>2016-09-04T14:26:59Z</time>
      </trkpt>
      <trkpt lat="45.38985" lon="5.95498">
        <ele>442.62018082</ele>
        <time>2016-09-04T14:27:04Z</time>
      </trkpt>
      <trkpt lat="45.38979" lon="5.95494">
        <ele>438.242474002</ele>
        <time>2016-09-04T14:27:14Z</time>
      </trkpt>
      <trkpt lat="45.38974" lon="5.95493">
        <ele>438.242474002</ele>
        <time>2016-09-04T14:27:19Z</time>
      </trkpt>
      <trkpt lat="45.38966" lon="5.95487">
        <ele>433.93996556</ele>
        <time>2016-09-04T14:27:29Z</time>
      </trkpt>
      <trkpt lat="45.38964" lon="5.95486">
        <ele>433.93996556</ele>
        <time>2016-09-04T14:27:34Z</time>
      </trkpt>
      <trkpt lat="45.38957" lon="5.95486">
        <ele>433.93996556</ele>
        <time>2016-09-04T14:27:49Z</time>
      </trkpt>
      <trkpt lat="45.38955" lon="5.95485">
        <ele>429.424446336</ele>
        <time>2016-09-04T14:27:54Z</time>
      </trkpt>
      <trkpt lat="45.38951" lon="5.95484">
        <ele>429.424446336</ele>
        <time>2016-09-04T14:28:04Z</time>
      </trkpt>
      <trkpt lat="45.38948" lon="5.95482">
        <ele>429.424446336</ele>
        <time>2016-09-04T14:28:09Z</time>
      </trkpt>
      <trkpt lat="45.38941" lon="5.95471">
        <ele>424.861727092</ele>
        <time>2016-09-04T14:28:19Z</time>
      </trkpt>
      <trkpt lat="45.38937" lon="5.9547">
        <ele>424.861727092</ele>
        <time>2016-09-04T14:28:24Z</time>
      </trkpt>
      <trkpt lat="45.38927" lon="5.95462">
        <ele>420.549587903</ele>
        <time>2016-09-04T14:28:34Z</time>
      </trkpt>
      <trkpt lat="45.38923" lon="5.9546">
        <ele>420.549587903</ele>
        <time>2016-09-04T14:28:39Z</time>
      </trkpt>
      <trkpt lat="45.38913" lon="5.95453">
        <ele>416.330793844</ele>
        <time>2016-09-04T14:28:49Z</time>
      </trkpt>
      <trkpt lat="45.38909" lon="5.95451">
        <ele>416.330793844</ele>
        <time>2016-09-04T14:28:54Z</time>
      </trkpt>
      <trkpt lat="45.389" lon="5.95445">
        <ele>412.491620318</ele>
        <time>2016-09-04T14:29:04Z</time>
      </trkpt>
      <trkpt lat="45.38895" lon="5.9544">
        <ele>412.491620318</ele>
        <time>2016-09-04T14:29:09Z</time>
      </trkpt>
      <trkpt lat="45.38886" lon="5.9544">
        <ele>408.287351833</ele>
        <time>2016-09-04T14:29:19Z</time>
      </trkpt>
      <trkpt lat="45.38881" lon="5.9544">
        <ele>408.287351833</ele>
        <time>2016-09-04T14:29:24Z</time>
      </trkpt>
      <trkpt lat="45.38872" lon="5.95445">
        <ele>404.469992847</ele>
        <time>2016-09-04T14:29:34Z</time>
      </trkpt>
      <trkpt lat="45.38867" lon="5.95447">
        <ele>404.469992847</ele>
        <time>2016-09-04T14:29:39Z</time>
      </trkpt>
      <trkpt lat="45.38856" lon="5.95453">
        <ele>400.87042893</ele>
        <time>2016-09-04T14:29:49Z</time>
      </trkpt>
      <trkpt lat="45.38851" lon="5.95454">
        <ele>400.87042893</ele>
        <time>2016-09-04T14:29:54Z</time>
      </trkpt>
      <trkpt lat="45.38842" lon="5.9545">
        <ele>397.187120758</ele>
        <time>2016-09-04T14:30:09Z</time>
      </trkpt>
      <trkpt lat="45.38838" lon="5.9545">
        <ele>397.187120758</ele>
        <time>2016-09-04T14:30:14Z</time>
      </trkpt>
      <trkpt lat="45.38833" lon="5.95441">
        <ele>394.437791122</ele>
        <time>2016-09-04T14:30:24Z</time>
      </trkpt>
      <trkpt lat="45.38832" lon="5.95441">
        <ele>394.437791122</ele>
        <time>2016-09-04T14:30:29Z</time>
      </trkpt>
      <trkpt lat="45.38831" lon="5.95441">
        <ele>394.437791122</ele>
        <time>2016-09-04T14:30:39Z</time>
      </trkpt>
      <trkpt lat="45.38831" lon="5.95441">
        <ele>394.437791122</ele>
        <time>2016-09-04T14:30:44Z</time>
      </trkpt>
      <trkpt lat="45.38831" lon="5.95442">
        <ele>394.437791122</ele>
        <time>2016-09-04T14:30:54Z</time>
      </trkpt>
      <trkpt lat="45.3883" lon="5.95442">
        <ele>394.437791122</ele>
        <time>2016-09-04T14:30:59Z</time>
      </trkpt>
      <trkpt lat="45.3883" lon="5.95442">
        <ele>394.437791122</ele>
        <time>2016-09-04T14:31:09Z</time>
      </trkpt>
      <trkpt lat="45.3883" lon="5.95442">
        <ele>394.437791122</ele>
        <time>2016-09-04T14:31:14Z</time>
      </trkpt>
      <trkpt lat="45.38831" lon="5.95439">
        <ele>394.437791122</ele>
        <time>2016-09-04T14:31:24Z</time>
      </trkpt>
      <trkpt lat="45.38831" lon="5.95439">
        <ele>394.437791122</ele>
        <time>2016-09-04T14:31:29Z</time>
      </trkpt>
      <trkpt lat="45.38831" lon="5.95438">
        <ele>394.437791122</ele>
        <time>2016-09-04T14:31:39Z</time>
      </trkpt>
      <trkpt lat="45.38831" lon="5.95438">
        <ele>394.437791122</ele>
        <time>2016-09-04T14:31:44Z</time>
      </trkpt>
      <trkpt lat="45.38831" lon="5.95438">
        <ele>394.437791122</ele>
        <time>2016-09-04T14:31:49Z</time>
      </trkpt>
      <trkpt lat="45.38831" lon="5.95438">
        <ele>394.437791122</ele>
        <time>2016-09-04T14:31:54Z</time>
      </trkpt>
    </trkseg>
  </trk>
</gpx>